<?xml version="1.0" encoding="UTF-8" standalone="no" ?>
<gpx xmlns="http://www.topografix.com/GPX/1/1" xmlns:xsi="http://www.w3.org/2001/XMLSchema-instance" xsi:schemaLocation="http://www.topografix.com/GPX/1/1 http://www.topografix.com/GPX/1/1/gpx.xsd" version="1.1" creator="VisuGPX - https://www.visugpx.com">
  <metadata>
    <name>Parcours 7.6 km Ronde de Robion 2026</name>
    <desc><![CDATA[Nouveau parcours trail de la ronde de Robion 2026 : 7.6 km pour 175 mètres de dénivelé positif .]]></desc>
  </metadata>
  <trk>
    <name><![CDATA[Robion Trail]]></name>
    <extensions>
      <line xmlns="http://www.topografix.com/GPX/gpx_style/0/2">
        <color>0000FF</color>
        <width>4</width>
      </line>
    </extensions>
    <trkseg>
      <trkpt lat="43.84372" lon="5.11299">
        <ele>142.39999389648</ele>
        <time>2025-07-10T18:03:22.000Z</time>
      </trkpt>
      <trkpt lat="43.84372" lon="5.11305">
        <ele>142.39999389648</ele>
        <time>2025-07-10T18:03:24.000Z</time>
      </trkpt>
      <trkpt lat="43.84372" lon="5.11314">
        <ele>142.39999389648</ele>
        <time>2025-07-10T18:03:28.000Z</time>
      </trkpt>
      <trkpt lat="43.84372" lon="5.11318">
        <ele>142.60000610352</ele>
        <time>2025-07-10T18:03:29.000Z</time>
      </trkpt>
      <trkpt lat="43.84372" lon="5.11333">
        <ele>142.80000305176</ele>
        <time>2025-07-10T18:03:34.000Z</time>
      </trkpt>
      <trkpt lat="43.84372" lon="5.11341">
        <ele>143.60000610352</ele>
        <time>2025-07-10T18:03:37.000Z</time>
      </trkpt>
      <trkpt lat="43.8437" lon="5.1135">
        <ele>144.19999694824</ele>
        <time>2025-07-10T18:03:40.000Z</time>
      </trkpt>
      <trkpt lat="43.84367" lon="5.11356">
        <ele>144.19999694824</ele>
        <time>2025-07-10T18:03:43.000Z</time>
      </trkpt>
      <trkpt lat="43.84362" lon="5.11358">
        <ele>144.39999389648</ele>
        <time>2025-07-10T18:03:45.000Z</time>
      </trkpt>
      <trkpt lat="43.84351" lon="5.11352">
        <ele>144.60000610352</ele>
        <time>2025-07-10T18:03:51.000Z</time>
      </trkpt>
      <trkpt lat="43.84341" lon="5.11344">
        <ele>145.80000305176</ele>
        <time>2025-07-10T18:03:56.000Z</time>
      </trkpt>
      <trkpt lat="43.84336" lon="5.11339">
        <ele>146.19999694824</ele>
        <time>2025-07-10T18:03:59.000Z</time>
      </trkpt>
      <trkpt lat="43.84323" lon="5.11334">
        <ele>146.80000305176</ele>
        <time>2025-07-10T18:04:05.000Z</time>
      </trkpt>
      <trkpt lat="43.84319" lon="5.11333">
        <ele>147</ele>
        <time>2025-07-10T18:04:07.000Z</time>
      </trkpt>
      <trkpt lat="43.84309" lon="5.11326">
        <ele>147.80000305176</ele>
        <time>2025-07-10T18:04:13.000Z</time>
      </trkpt>
      <trkpt lat="43.84307" lon="5.11325">
        <ele>148</ele>
        <time>2025-07-10T18:04:14.000Z</time>
      </trkpt>
      <trkpt lat="43.84296" lon="5.11321">
        <ele>148.80000305176</ele>
        <time>2025-07-10T18:04:19.000Z</time>
      </trkpt>
      <trkpt lat="43.84292" lon="5.1132">
        <ele>149.19999694824</ele>
        <time>2025-07-10T18:04:21.000Z</time>
      </trkpt>
      <trkpt lat="43.84286" lon="5.11313">
        <ele>150.19999694824</ele>
        <time>2025-07-10T18:04:26.000Z</time>
      </trkpt>
      <trkpt lat="43.84285" lon="5.11311">
        <ele>150.60000610352</ele>
        <time>2025-07-10T18:04:27.000Z</time>
      </trkpt>
      <trkpt lat="43.84275" lon="5.11304">
        <ele>151.19999694824</ele>
        <time>2025-07-10T18:04:33.000Z</time>
      </trkpt>
      <trkpt lat="43.84269" lon="5.11298">
        <ele>151.60000610352</ele>
        <time>2025-07-10T18:04:37.000Z</time>
      </trkpt>
      <trkpt lat="43.84263" lon="5.11295">
        <ele>152</ele>
        <time>2025-07-10T18:04:40.000Z</time>
      </trkpt>
      <trkpt lat="43.84258" lon="5.11291">
        <ele>152.80000305176</ele>
        <time>2025-07-10T18:04:43.000Z</time>
      </trkpt>
      <trkpt lat="43.84252" lon="5.11285">
        <ele>154</ele>
        <time>2025-07-10T18:04:47.000Z</time>
      </trkpt>
      <trkpt lat="43.84247" lon="5.11282">
        <ele>154.19999694824</ele>
        <time>2025-07-10T18:04:49.000Z</time>
      </trkpt>
      <trkpt lat="43.84243" lon="5.11279">
        <ele>155</ele>
        <time>2025-07-10T18:04:52.000Z</time>
      </trkpt>
      <trkpt lat="43.84234" lon="5.11274">
        <ele>155.60000610352</ele>
        <time>2025-07-10T18:04:57.000Z</time>
      </trkpt>
      <trkpt lat="43.8423" lon="5.11271">
        <ele>156.19999694824</ele>
        <time>2025-07-10T18:05:00.000Z</time>
      </trkpt>
      <trkpt lat="43.84226" lon="5.1127">
        <ele>157.60000610352</ele>
        <time>2025-07-10T18:05:04.000Z</time>
      </trkpt>
      <trkpt lat="43.84224" lon="5.11269">
        <ele>157.60000610352</ele>
        <time>2025-07-10T18:05:05.000Z</time>
      </trkpt>
      <trkpt lat="43.84219" lon="5.11267">
        <ele>158.60000610352</ele>
        <time>2025-07-10T18:05:08.000Z</time>
      </trkpt>
      <trkpt lat="43.84217" lon="5.11266">
        <ele>159</ele>
        <time>2025-07-10T18:05:09.000Z</time>
      </trkpt>
      <trkpt lat="43.84215" lon="5.11265">
        <ele>159.19999694824</ele>
        <time>2025-07-10T18:05:11.000Z</time>
      </trkpt>
      <trkpt lat="43.84212" lon="5.11264">
        <ele>159.60000610352</ele>
        <time>2025-07-10T18:05:13.000Z</time>
      </trkpt>
      <trkpt lat="43.84209" lon="5.11262">
        <ele>160.19999694824</ele>
        <time>2025-07-10T18:05:15.000Z</time>
      </trkpt>
      <trkpt lat="43.84204" lon="5.11258">
        <ele>161</ele>
        <time>2025-07-10T18:05:18.000Z</time>
      </trkpt>
      <trkpt lat="43.84203" lon="5.11257">
        <ele>161.19999694824</ele>
        <time>2025-07-10T18:05:19.000Z</time>
      </trkpt>
      <trkpt lat="43.84199" lon="5.11253">
        <ele>162.19999694824</ele>
        <time>2025-07-10T18:05:22.000Z</time>
      </trkpt>
      <trkpt lat="43.84197" lon="5.11248">
        <ele>162.80000305176</ele>
        <time>2025-07-10T18:05:25.000Z</time>
      </trkpt>
      <trkpt lat="43.84196" lon="5.11244">
        <ele>163.39999389648</ele>
        <time>2025-07-10T18:05:27.000Z</time>
      </trkpt>
      <trkpt lat="43.84195" lon="5.11233">
        <ele>163.60000610352</ele>
        <time>2025-07-10T18:05:31.000Z</time>
      </trkpt>
      <trkpt lat="43.84195" lon="5.11211">
        <ele>163.80000305176</ele>
        <time>2025-07-10T18:05:38.000Z</time>
      </trkpt>
      <trkpt lat="43.84195" lon="5.11199">
        <ele>164.19999694824</ele>
        <time>2025-07-10T18:05:43.000Z</time>
      </trkpt>
      <trkpt lat="43.84195" lon="5.11192">
        <ele>164.60000610352</ele>
        <time>2025-07-10T18:05:46.000Z</time>
      </trkpt>
      <trkpt lat="43.84194" lon="5.11182">
        <ele>165.39999389648</ele>
        <time>2025-07-10T18:05:50.000Z</time>
      </trkpt>
      <trkpt lat="43.84193" lon="5.1118">
        <ele>165.60000610352</ele>
        <time>2025-07-10T18:05:51.000Z</time>
      </trkpt>
      <trkpt lat="43.84191" lon="5.11167">
        <ele>165.60000610352</ele>
        <time>2025-07-10T18:05:57.000Z</time>
      </trkpt>
      <trkpt lat="43.84185" lon="5.1115">
        <ele>166.60000610352</ele>
        <time>2025-07-10T18:06:05.000Z</time>
      </trkpt>
      <trkpt lat="43.84184" lon="5.11147">
        <ele>166.80000305176</ele>
        <time>2025-07-10T18:06:06.000Z</time>
      </trkpt>
      <trkpt lat="43.8418" lon="5.11139">
        <ele>167.60000610352</ele>
        <time>2025-07-10T18:06:10.000Z</time>
      </trkpt>
      <trkpt lat="43.84173" lon="5.11136">
        <ele>168</ele>
        <time>2025-07-10T18:06:14.000Z</time>
      </trkpt>
      <trkpt lat="43.84155" lon="5.11129">
        <ele>168.19999694824</ele>
        <time>2025-07-10T18:06:23.000Z</time>
      </trkpt>
      <trkpt lat="43.84153" lon="5.11128">
        <ele>168</ele>
        <time>2025-07-10T18:06:24.000Z</time>
      </trkpt>
      <trkpt lat="43.84138" lon="5.11115">
        <ele>167.60000610352</ele>
        <time>2025-07-10T18:06:32.000Z</time>
      </trkpt>
      <trkpt lat="43.84124" lon="5.11102">
        <ele>167</ele>
        <time>2025-07-10T18:06:39.000Z</time>
      </trkpt>
      <trkpt lat="43.84117" lon="5.11098">
        <ele>166.60000610352</ele>
        <time>2025-07-10T18:06:42.000Z</time>
      </trkpt>
      <trkpt lat="43.84108" lon="5.11093">
        <ele>166.19999694824</ele>
        <time>2025-07-10T18:06:46.000Z</time>
      </trkpt>
      <trkpt lat="43.84102" lon="5.11091">
        <ele>165.60000610352</ele>
        <time>2025-07-10T18:06:49.000Z</time>
      </trkpt>
      <trkpt lat="43.84095" lon="5.11087">
        <ele>165.39999389648</ele>
        <time>2025-07-10T18:06:52.000Z</time>
      </trkpt>
      <trkpt lat="43.8408" lon="5.11079">
        <ele>165.19999694824</ele>
        <time>2025-07-10T18:06:59.000Z</time>
      </trkpt>
      <trkpt lat="43.84071" lon="5.11073">
        <ele>164.39999389648</ele>
        <time>2025-07-10T18:07:03.000Z</time>
      </trkpt>
      <trkpt lat="43.84067" lon="5.1107">
        <ele>164.19999694824</ele>
        <time>2025-07-10T18:07:05.000Z</time>
      </trkpt>
      <trkpt lat="43.84057" lon="5.11061">
        <ele>164</ele>
        <time>2025-07-10T18:07:10.000Z</time>
      </trkpt>
      <trkpt lat="43.84053" lon="5.11058">
        <ele>163.80000305176</ele>
        <time>2025-07-10T18:07:12.000Z</time>
      </trkpt>
      <trkpt lat="43.84048" lon="5.11055">
        <ele>163.60000610352</ele>
        <time>2025-07-10T18:07:15.000Z</time>
      </trkpt>
      <trkpt lat="43.84044" lon="5.11054">
        <ele>163.80000305176</ele>
        <time>2025-07-10T18:07:17.000Z</time>
      </trkpt>
      <trkpt lat="43.8404" lon="5.11053">
        <ele>163.39999389648</ele>
        <time>2025-07-10T18:07:20.000Z</time>
      </trkpt>
      <trkpt lat="43.84035" lon="5.11053">
        <ele>162.60000610352</ele>
        <time>2025-07-10T18:07:22.000Z</time>
      </trkpt>
      <trkpt lat="43.84029" lon="5.11057">
        <ele>162.19999694824</ele>
        <time>2025-07-10T18:07:25.000Z</time>
      </trkpt>
      <trkpt lat="43.84022" lon="5.1106">
        <ele>162.19999694824</ele>
        <time>2025-07-10T18:07:28.000Z</time>
      </trkpt>
      <trkpt lat="43.84013" lon="5.11066">
        <ele>162.19999694824</ele>
        <time>2025-07-10T18:07:32.000Z</time>
      </trkpt>
      <trkpt lat="43.84007" lon="5.11068">
        <ele>162.19999694824</ele>
        <time>2025-07-10T18:07:35.000Z</time>
      </trkpt>
      <trkpt lat="43.83998" lon="5.11072">
        <ele>162</ele>
        <time>2025-07-10T18:07:40.000Z</time>
      </trkpt>
      <trkpt lat="43.83996" lon="5.11073">
        <ele>161.80000305176</ele>
        <time>2025-07-10T18:07:42.000Z</time>
      </trkpt>
      <trkpt lat="43.83992" lon="5.11072">
        <ele>161</ele>
        <time>2025-07-10T18:07:44.000Z</time>
      </trkpt>
      <trkpt lat="43.83988" lon="5.11069">
        <ele>160.19999694824</ele>
        <time>2025-07-10T18:07:47.000Z</time>
      </trkpt>
      <trkpt lat="43.83987" lon="5.11068">
        <ele>159.80000305176</ele>
        <time>2025-07-10T18:07:48.000Z</time>
      </trkpt>
      <trkpt lat="43.83983" lon="5.11065">
        <ele>158.60000610352</ele>
        <time>2025-07-10T18:07:51.000Z</time>
      </trkpt>
      <trkpt lat="43.83978" lon="5.1106">
        <ele>157</ele>
        <time>2025-07-10T18:07:56.000Z</time>
      </trkpt>
      <trkpt lat="43.83978" lon="5.11058">
        <ele>156.60000610352</ele>
        <time>2025-07-10T18:07:57.000Z</time>
      </trkpt>
      <trkpt lat="43.83976" lon="5.11052">
        <ele>155.60000610352</ele>
        <time>2025-07-10T18:08:00.000Z</time>
      </trkpt>
      <trkpt lat="43.83975" lon="5.1105">
        <ele>154.60000610352</ele>
        <time>2025-07-10T18:08:01.000Z</time>
      </trkpt>
      <trkpt lat="43.83973" lon="5.11049">
        <ele>154</ele>
        <time>2025-07-10T18:08:02.000Z</time>
      </trkpt>
      <trkpt lat="43.83967" lon="5.11045">
        <ele>152.80000305176</ele>
        <time>2025-07-10T18:08:05.000Z</time>
      </trkpt>
      <trkpt lat="43.83965" lon="5.11043">
        <ele>152.60000610352</ele>
        <time>2025-07-10T18:08:06.000Z</time>
      </trkpt>
      <trkpt lat="43.8396" lon="5.11041">
        <ele>151.39999389648</ele>
        <time>2025-07-10T18:08:09.000Z</time>
      </trkpt>
      <trkpt lat="43.83952" lon="5.11039">
        <ele>150.60000610352</ele>
        <time>2025-07-10T18:08:12.000Z</time>
      </trkpt>
      <trkpt lat="43.83947" lon="5.11037">
        <ele>150.19999694824</ele>
        <time>2025-07-10T18:08:14.000Z</time>
      </trkpt>
      <trkpt lat="43.83938" lon="5.11028">
        <ele>149.19999694824</ele>
        <time>2025-07-10T18:08:20.000Z</time>
      </trkpt>
      <trkpt lat="43.83937" lon="5.11026">
        <ele>148.80000305176</ele>
        <time>2025-07-10T18:08:21.000Z</time>
      </trkpt>
      <trkpt lat="43.83934" lon="5.11021">
        <ele>148</ele>
        <time>2025-07-10T18:08:23.000Z</time>
      </trkpt>
      <trkpt lat="43.83932" lon="5.11018">
        <ele>146.60000610352</ele>
        <time>2025-07-10T18:08:25.000Z</time>
      </trkpt>
      <trkpt lat="43.8393" lon="5.11012">
        <ele>145.80000305176</ele>
        <time>2025-07-10T18:08:27.000Z</time>
      </trkpt>
      <trkpt lat="43.83928" lon="5.1101">
        <ele>145.60000610352</ele>
        <time>2025-07-10T18:08:28.000Z</time>
      </trkpt>
      <trkpt lat="43.83925" lon="5.11003">
        <ele>144.19999694824</ele>
        <time>2025-07-10T18:08:31.000Z</time>
      </trkpt>
      <trkpt lat="43.8392" lon="5.11">
        <ele>143.60000610352</ele>
        <time>2025-07-10T18:08:33.000Z</time>
      </trkpt>
      <trkpt lat="43.83917" lon="5.10997">
        <ele>143</ele>
        <time>2025-07-10T18:08:35.000Z</time>
      </trkpt>
      <trkpt lat="43.83908" lon="5.10991">
        <ele>141.80000305176</ele>
        <time>2025-07-10T18:08:40.000Z</time>
      </trkpt>
      <trkpt lat="43.83903" lon="5.10986">
        <ele>140.60000610352</ele>
        <time>2025-07-10T18:08:44.000Z</time>
      </trkpt>
      <trkpt lat="43.83902" lon="5.10984">
        <ele>140.19999694824</ele>
        <time>2025-07-10T18:08:45.000Z</time>
      </trkpt>
      <trkpt lat="43.83901" lon="5.10982">
        <ele>139.60000610352</ele>
        <time>2025-07-10T18:08:46.000Z</time>
      </trkpt>
      <trkpt lat="43.83897" lon="5.10976">
        <ele>138.19999694824</ele>
        <time>2025-07-10T18:08:49.000Z</time>
      </trkpt>
      <trkpt lat="43.83895" lon="5.1097">
        <ele>137.39999389648</ele>
        <time>2025-07-10T18:08:51.000Z</time>
      </trkpt>
      <trkpt lat="43.83894" lon="5.10967">
        <ele>136.80000305176</ele>
        <time>2025-07-10T18:08:52.000Z</time>
      </trkpt>
      <trkpt lat="43.83892" lon="5.10964">
        <ele>135.80000305176</ele>
        <time>2025-07-10T18:08:54.000Z</time>
      </trkpt>
      <trkpt lat="43.83891" lon="5.10962">
        <ele>135.39999389648</ele>
        <time>2025-07-10T18:08:55.000Z</time>
      </trkpt>
      <trkpt lat="43.83887" lon="5.10961">
        <ele>134.60000610352</ele>
        <time>2025-07-10T18:08:57.000Z</time>
      </trkpt>
      <trkpt lat="43.83881" lon="5.10959">
        <ele>133.39999389648</ele>
        <time>2025-07-10T18:09:00.000Z</time>
      </trkpt>
      <trkpt lat="43.83875" lon="5.10956">
        <ele>132.19999694824</ele>
        <time>2025-07-10T18:09:02.000Z</time>
      </trkpt>
      <trkpt lat="43.83865" lon="5.10948">
        <ele>130.80000305176</ele>
        <time>2025-07-10T18:09:07.000Z</time>
      </trkpt>
      <trkpt lat="43.83858" lon="5.10941">
        <ele>130</ele>
        <time>2025-07-10T18:09:10.000Z</time>
      </trkpt>
      <trkpt lat="43.83852" lon="5.10933">
        <ele>129.60000610352</ele>
        <time>2025-07-10T18:09:13.000Z</time>
      </trkpt>
      <trkpt lat="43.83841" lon="5.10922">
        <ele>128.60000610352</ele>
        <time>2025-07-10T18:09:18.000Z</time>
      </trkpt>
      <trkpt lat="43.83839" lon="5.1092">
        <ele>128.39999389648</ele>
        <time>2025-07-10T18:09:19.000Z</time>
      </trkpt>
      <trkpt lat="43.83829" lon="5.10906">
        <ele>128.19999694824</ele>
        <time>2025-07-10T18:09:25.000Z</time>
      </trkpt>
      <trkpt lat="43.83828" lon="5.10902">
        <ele>128.19999694824</ele>
        <time>2025-07-10T18:09:26.000Z</time>
      </trkpt>
      <trkpt lat="43.83823" lon="5.10878">
        <ele>128.19999694824</ele>
        <time>2025-07-10T18:09:34.000Z</time>
      </trkpt>
      <trkpt lat="43.83822" lon="5.10854">
        <ele>128</ele>
        <time>2025-07-10T18:09:41.000Z</time>
      </trkpt>
      <trkpt lat="43.83824" lon="5.10844">
        <ele>127.59999847412</ele>
        <time>2025-07-10T18:09:44.000Z</time>
      </trkpt>
      <trkpt lat="43.83825" lon="5.10837">
        <ele>127.59999847412</ele>
        <time>2025-07-10T18:09:46.000Z</time>
      </trkpt>
      <trkpt lat="43.83826" lon="5.10834">
        <ele>127.59999847412</ele>
        <time>2025-07-10T18:09:47.000Z</time>
      </trkpt>
      <trkpt lat="43.83823" lon="5.10823">
        <ele>127.59999847412</ele>
        <time>2025-07-10T18:09:51.000Z</time>
      </trkpt>
      <trkpt lat="43.83818" lon="5.1082">
        <ele>127.59999847412</ele>
        <time>2025-07-10T18:09:54.000Z</time>
      </trkpt>
      <trkpt lat="43.83812" lon="5.10819">
        <ele>128</ele>
        <time>2025-07-10T18:09:57.000Z</time>
      </trkpt>
      <trkpt lat="43.83807" lon="5.10819">
        <ele>128.60000610352</ele>
        <time>2025-07-10T18:09:59.000Z</time>
      </trkpt>
      <trkpt lat="43.83804" lon="5.10819">
        <ele>128.80000305176</ele>
        <time>2025-07-10T18:10:01.000Z</time>
      </trkpt>
      <trkpt lat="43.83796" lon="5.10818">
        <ele>129</ele>
        <time>2025-07-10T18:10:05.000Z</time>
      </trkpt>
      <trkpt lat="43.83784" lon="5.10818">
        <ele>129.60000610352</ele>
        <time>2025-07-10T18:10:11.000Z</time>
      </trkpt>
      <trkpt lat="43.83782" lon="5.10818">
        <ele>130</ele>
        <time>2025-07-10T18:10:12.000Z</time>
      </trkpt>
      <trkpt lat="43.83772" lon="5.10813">
        <ele>130.60000610352</ele>
        <time>2025-07-10T18:10:17.000Z</time>
      </trkpt>
      <trkpt lat="43.83764" lon="5.1081">
        <ele>130.80000305176</ele>
        <time>2025-07-10T18:10:21.000Z</time>
      </trkpt>
      <trkpt lat="43.83747" lon="5.10801">
        <ele>131.19999694824</ele>
        <time>2025-07-10T18:10:30.000Z</time>
      </trkpt>
      <trkpt lat="43.83745" lon="5.108">
        <ele>131.19999694824</ele>
        <time>2025-07-10T18:10:31.000Z</time>
      </trkpt>
      <trkpt lat="43.83733" lon="5.10793">
        <ele>131.39999389648</ele>
        <time>2025-07-10T18:10:37.000Z</time>
      </trkpt>
      <trkpt lat="43.83729" lon="5.1079">
        <ele>131.80000305176</ele>
        <time>2025-07-10T18:10:39.000Z</time>
      </trkpt>
      <trkpt lat="43.83717" lon="5.10784">
        <ele>132.60000610352</ele>
        <time>2025-07-10T18:10:45.000Z</time>
      </trkpt>
      <trkpt lat="43.83708" lon="5.1078">
        <ele>132.80000305176</ele>
        <time>2025-07-10T18:10:49.000Z</time>
      </trkpt>
      <trkpt lat="43.83702" lon="5.1078">
        <ele>133.39999389648</ele>
        <time>2025-07-10T18:10:52.000Z</time>
      </trkpt>
      <trkpt lat="43.83693" lon="5.10779">
        <ele>134</ele>
        <time>2025-07-10T18:10:57.000Z</time>
      </trkpt>
      <trkpt lat="43.83692" lon="5.10779">
        <ele>134</ele>
        <time>2025-07-10T18:10:58.000Z</time>
      </trkpt>
      <trkpt lat="43.8368" lon="5.10776">
        <ele>134.80000305176</ele>
        <time>2025-07-10T18:11:04.000Z</time>
      </trkpt>
      <trkpt lat="43.83678" lon="5.10775">
        <ele>135</ele>
        <time>2025-07-10T18:11:05.000Z</time>
      </trkpt>
      <trkpt lat="43.83668" lon="5.10769">
        <ele>136</ele>
        <time>2025-07-10T18:11:10.000Z</time>
      </trkpt>
      <trkpt lat="43.83664" lon="5.10768">
        <ele>136.19999694824</ele>
        <time>2025-07-10T18:11:12.000Z</time>
      </trkpt>
      <trkpt lat="43.83655" lon="5.10766">
        <ele>137.19999694824</ele>
        <time>2025-07-10T18:11:17.000Z</time>
      </trkpt>
      <trkpt lat="43.83653" lon="5.10766">
        <ele>137.39999389648</ele>
        <time>2025-07-10T18:11:18.000Z</time>
      </trkpt>
      <trkpt lat="43.83643" lon="5.10764">
        <ele>138</ele>
        <time>2025-07-10T18:11:24.000Z</time>
      </trkpt>
      <trkpt lat="43.8364" lon="5.10765">
        <ele>138.39999389648</ele>
        <time>2025-07-10T18:11:26.000Z</time>
      </trkpt>
      <trkpt lat="43.83627" lon="5.10763">
        <ele>139.60000610352</ele>
        <time>2025-07-10T18:11:33.000Z</time>
      </trkpt>
      <trkpt lat="43.83611" lon="5.10763">
        <ele>140.39999389648</ele>
        <time>2025-07-10T18:11:42.000Z</time>
      </trkpt>
      <trkpt lat="43.83609" lon="5.10763">
        <ele>140.39999389648</ele>
        <time>2025-07-10T18:11:43.000Z</time>
      </trkpt>
      <trkpt lat="43.83606" lon="5.10763">
        <ele>140.60000610352</ele>
        <time>2025-07-10T18:11:45.000Z</time>
      </trkpt>
      <trkpt lat="43.83602" lon="5.10762">
        <ele>141</ele>
        <time>2025-07-10T18:11:47.000Z</time>
      </trkpt>
      <trkpt lat="43.83588" lon="5.10761">
        <ele>141.39999389648</ele>
        <time>2025-07-10T18:11:54.000Z</time>
      </trkpt>
      <trkpt lat="43.83579" lon="5.10763">
        <ele>141.80000305176</ele>
        <time>2025-07-10T18:11:58.000Z</time>
      </trkpt>
      <trkpt lat="43.83573" lon="5.10763">
        <ele>142</ele>
        <time>2025-07-10T18:12:01.000Z</time>
      </trkpt>
      <trkpt lat="43.83559" lon="5.10766">
        <ele>143</ele>
        <time>2025-07-10T18:12:07.000Z</time>
      </trkpt>
      <trkpt lat="43.83553" lon="5.10766">
        <ele>143.39999389648</ele>
        <time>2025-07-10T18:12:10.000Z</time>
      </trkpt>
      <trkpt lat="43.83542" lon="5.10762">
        <ele>144</ele>
        <time>2025-07-10T18:12:16.000Z</time>
      </trkpt>
      <trkpt lat="43.83535" lon="5.1076">
        <ele>144</ele>
        <time>2025-07-10T18:12:19.000Z</time>
      </trkpt>
      <trkpt lat="43.83523" lon="5.10754">
        <ele>144.60000610352</ele>
        <time>2025-07-10T18:12:25.000Z</time>
      </trkpt>
      <trkpt lat="43.8352" lon="5.10752">
        <ele>145</ele>
        <time>2025-07-10T18:12:27.000Z</time>
      </trkpt>
      <trkpt lat="43.83509" lon="5.10742">
        <ele>145.19999694824</ele>
        <time>2025-07-10T18:12:33.000Z</time>
      </trkpt>
      <trkpt lat="43.83499" lon="5.10735">
        <ele>145.60000610352</ele>
        <time>2025-07-10T18:12:39.000Z</time>
      </trkpt>
      <trkpt lat="43.83486" lon="5.1073">
        <ele>145.80000305176</ele>
        <time>2025-07-10T18:12:46.000Z</time>
      </trkpt>
      <trkpt lat="43.83482" lon="5.10729">
        <ele>146</ele>
        <time>2025-07-10T18:12:48.000Z</time>
      </trkpt>
      <trkpt lat="43.83471" lon="5.10732">
        <ele>146.80000305176</ele>
        <time>2025-07-10T18:12:54.000Z</time>
      </trkpt>
      <trkpt lat="43.83468" lon="5.10733">
        <ele>147</ele>
        <time>2025-07-10T18:12:56.000Z</time>
      </trkpt>
      <trkpt lat="43.83466" lon="5.10733">
        <ele>147.39999389648</ele>
        <time>2025-07-10T18:12:57.000Z</time>
      </trkpt>
      <trkpt lat="43.83461" lon="5.10731">
        <ele>147.60000610352</ele>
        <time>2025-07-10T18:13:00.000Z</time>
      </trkpt>
      <trkpt lat="43.8346" lon="5.1073">
        <ele>147.60000610352</ele>
        <time>2025-07-10T18:13:01.000Z</time>
      </trkpt>
      <trkpt lat="43.83456" lon="5.10725">
        <ele>148.19999694824</ele>
        <time>2025-07-10T18:13:04.000Z</time>
      </trkpt>
      <trkpt lat="43.83455" lon="5.10723">
        <ele>148.39999389648</ele>
        <time>2025-07-10T18:13:05.000Z</time>
      </trkpt>
      <trkpt lat="43.83451" lon="5.10718">
        <ele>149.19999694824</ele>
        <time>2025-07-10T18:13:09.000Z</time>
      </trkpt>
      <trkpt lat="43.8345" lon="5.10716">
        <ele>149.39999389648</ele>
        <time>2025-07-10T18:13:10.000Z</time>
      </trkpt>
      <trkpt lat="43.8345" lon="5.10713">
        <ele>149.60000610352</ele>
        <time>2025-07-10T18:13:11.000Z</time>
      </trkpt>
      <trkpt lat="43.83451" lon="5.10711">
        <ele>149.60000610352</ele>
        <time>2025-07-10T18:13:12.000Z</time>
      </trkpt>
      <trkpt lat="43.83455" lon="5.10701">
        <ele>150</ele>
        <time>2025-07-10T18:13:17.000Z</time>
      </trkpt>
      <trkpt lat="43.83457" lon="5.10699">
        <ele>150</ele>
        <time>2025-07-10T18:13:18.000Z</time>
      </trkpt>
      <trkpt lat="43.83464" lon="5.10689">
        <ele>149.60000610352</ele>
        <time>2025-07-10T18:13:23.000Z</time>
      </trkpt>
      <trkpt lat="43.83473" lon="5.10678">
        <ele>149.19999694824</ele>
        <time>2025-07-10T18:13:29.000Z</time>
      </trkpt>
      <trkpt lat="43.83483" lon="5.10656">
        <ele>148.19999694824</ele>
        <time>2025-07-10T18:13:36.000Z</time>
      </trkpt>
      <trkpt lat="43.83485" lon="5.10654">
        <ele>148.19999694824</ele>
        <time>2025-07-10T18:13:37.000Z</time>
      </trkpt>
      <trkpt lat="43.83488" lon="5.10641">
        <ele>148</ele>
        <time>2025-07-10T18:13:42.000Z</time>
      </trkpt>
      <trkpt lat="43.83498" lon="5.10626">
        <ele>147.60000610352</ele>
        <time>2025-07-10T18:13:49.000Z</time>
      </trkpt>
      <trkpt lat="43.83506" lon="5.10614">
        <ele>147.60000610352</ele>
        <time>2025-07-10T18:13:54.000Z</time>
      </trkpt>
      <trkpt lat="43.83509" lon="5.10599">
        <ele>147.80000305176</ele>
        <time>2025-07-10T18:13:59.000Z</time>
      </trkpt>
      <trkpt lat="43.83511" lon="5.10597">
        <ele>147.80000305176</ele>
        <time>2025-07-10T18:14:00.000Z</time>
      </trkpt>
      <trkpt lat="43.83522" lon="5.10584">
        <ele>148.19999694824</ele>
        <time>2025-07-10T18:14:06.000Z</time>
      </trkpt>
      <trkpt lat="43.83532" lon="5.10565">
        <ele>148</ele>
        <time>2025-07-10T18:14:14.000Z</time>
      </trkpt>
      <trkpt lat="43.83532" lon="5.10558">
        <ele>148.80000305176</ele>
        <time>2025-07-10T18:14:19.000Z</time>
      </trkpt>
      <trkpt lat="43.83531" lon="5.10553">
        <ele>149.19999694824</ele>
        <time>2025-07-10T18:14:21.000Z</time>
      </trkpt>
      <trkpt lat="43.83531" lon="5.10546">
        <ele>150.39999389648</ele>
        <time>2025-07-10T18:14:25.000Z</time>
      </trkpt>
      <trkpt lat="43.83531" lon="5.10543">
        <ele>151.39999389648</ele>
        <time>2025-07-10T18:14:28.000Z</time>
      </trkpt>
      <trkpt lat="43.8353" lon="5.10538">
        <ele>152.60000610352</ele>
        <time>2025-07-10T18:14:31.000Z</time>
      </trkpt>
      <trkpt lat="43.83528" lon="5.10533">
        <ele>153.19999694824</ele>
        <time>2025-07-10T18:14:33.000Z</time>
      </trkpt>
      <trkpt lat="43.83525" lon="5.10529">
        <ele>153.80000305176</ele>
        <time>2025-07-10T18:14:36.000Z</time>
      </trkpt>
      <trkpt lat="43.83521" lon="5.10524">
        <ele>154.39999389648</ele>
        <time>2025-07-10T18:14:38.000Z</time>
      </trkpt>
      <trkpt lat="43.83521" lon="5.10524">
        <ele>154.39999389648</ele>
        <time>2025-07-10T18:14:39.000Z</time>
      </trkpt>
      <trkpt lat="43.83517" lon="5.10521">
        <ele>154.80000305176</ele>
        <time>2025-07-10T18:14:42.000Z</time>
      </trkpt>
      <trkpt lat="43.83509" lon="5.10519">
        <ele>155</ele>
        <time>2025-07-10T18:14:47.000Z</time>
      </trkpt>
      <trkpt lat="43.83497" lon="5.1052">
        <ele>154.19999694824</ele>
        <time>2025-07-10T18:14:53.000Z</time>
      </trkpt>
      <trkpt lat="43.83494" lon="5.10519">
        <ele>153.80000305176</ele>
        <time>2025-07-10T18:14:54.000Z</time>
      </trkpt>
      <trkpt lat="43.83485" lon="5.10517">
        <ele>152.39999389648</ele>
        <time>2025-07-10T18:14:58.000Z</time>
      </trkpt>
      <trkpt lat="43.83475" lon="5.10512">
        <ele>151.80000305176</ele>
        <time>2025-07-10T18:15:02.000Z</time>
      </trkpt>
      <trkpt lat="43.83457" lon="5.10506">
        <ele>151.80000305176</ele>
        <time>2025-07-10T18:15:09.000Z</time>
      </trkpt>
      <trkpt lat="43.83456" lon="5.10506">
        <ele>151.80000305176</ele>
        <time>2025-07-10T18:15:10.000Z</time>
      </trkpt>
      <trkpt lat="43.8345" lon="5.10502">
        <ele>151.19999694824</ele>
        <time>2025-07-10T18:15:13.000Z</time>
      </trkpt>
      <trkpt lat="43.8344" lon="5.10497">
        <ele>151.19999694824</ele>
        <time>2025-07-10T18:15:17.000Z</time>
      </trkpt>
      <trkpt lat="43.83431" lon="5.10494">
        <ele>151.19999694824</ele>
        <time>2025-07-10T18:15:21.000Z</time>
      </trkpt>
      <trkpt lat="43.83424" lon="5.10489">
        <ele>151</ele>
        <time>2025-07-10T18:15:24.000Z</time>
      </trkpt>
      <trkpt lat="43.83409" lon="5.10478">
        <ele>150.19999694824</ele>
        <time>2025-07-10T18:15:31.000Z</time>
      </trkpt>
      <trkpt lat="43.83406" lon="5.10476">
        <ele>150.19999694824</ele>
        <time>2025-07-10T18:15:32.000Z</time>
      </trkpt>
      <trkpt lat="43.83393" lon="5.10467">
        <ele>150.19999694824</ele>
        <time>2025-07-10T18:15:38.000Z</time>
      </trkpt>
      <trkpt lat="43.83381" lon="5.10458">
        <ele>149.80000305176</ele>
        <time>2025-07-10T18:15:44.000Z</time>
      </trkpt>
      <trkpt lat="43.8337" lon="5.10445">
        <ele>149</ele>
        <time>2025-07-10T18:15:51.000Z</time>
      </trkpt>
      <trkpt lat="43.83366" lon="5.10433">
        <ele>147.80000305176</ele>
        <time>2025-07-10T18:15:55.000Z</time>
      </trkpt>
      <trkpt lat="43.83364" lon="5.1043">
        <ele>147.19999694824</ele>
        <time>2025-07-10T18:15:57.000Z</time>
      </trkpt>
      <trkpt lat="43.83363" lon="5.10429">
        <ele>147</ele>
        <time>2025-07-10T18:15:58.000Z</time>
      </trkpt>
      <trkpt lat="43.8336" lon="5.10427">
        <ele>146.80000305176</ele>
        <time>2025-07-10T18:16:01.000Z</time>
      </trkpt>
      <trkpt lat="43.83358" lon="5.10426">
        <ele>146.60000610352</ele>
        <time>2025-07-10T18:16:03.000Z</time>
      </trkpt>
      <trkpt lat="43.83355" lon="5.10426">
        <ele>146.39999389648</ele>
        <time>2025-07-10T18:16:06.000Z</time>
      </trkpt>
      <trkpt lat="43.83344" lon="5.10424">
        <ele>145.80000305176</ele>
        <time>2025-07-10T18:16:12.000Z</time>
      </trkpt>
      <trkpt lat="43.83333" lon="5.10419">
        <ele>145.60000610352</ele>
        <time>2025-07-10T18:16:17.000Z</time>
      </trkpt>
      <trkpt lat="43.83331" lon="5.10416">
        <ele>145.60000610352</ele>
        <time>2025-07-10T18:16:18.000Z</time>
      </trkpt>
      <trkpt lat="43.8333" lon="5.10414">
        <ele>145.39999389648</ele>
        <time>2025-07-10T18:16:19.000Z</time>
      </trkpt>
      <trkpt lat="43.8333" lon="5.10406">
        <ele>145.60000610352</ele>
        <time>2025-07-10T18:16:23.000Z</time>
      </trkpt>
      <trkpt lat="43.83329" lon="5.10401">
        <ele>145.80000305176</ele>
        <time>2025-07-10T18:16:25.000Z</time>
      </trkpt>
      <trkpt lat="43.83329" lon="5.10396">
        <ele>146.60000610352</ele>
        <time>2025-07-10T18:16:28.000Z</time>
      </trkpt>
      <trkpt lat="43.83328" lon="5.1039">
        <ele>147</ele>
        <time>2025-07-10T18:16:31.000Z</time>
      </trkpt>
      <trkpt lat="43.83327" lon="5.10387">
        <ele>147.39999389648</ele>
        <time>2025-07-10T18:16:33.000Z</time>
      </trkpt>
      <trkpt lat="43.83325" lon="5.10386">
        <ele>147.60000610352</ele>
        <time>2025-07-10T18:16:34.000Z</time>
      </trkpt>
      <trkpt lat="43.83324" lon="5.10384">
        <ele>147.80000305176</ele>
        <time>2025-07-10T18:16:35.000Z</time>
      </trkpt>
      <trkpt lat="43.83323" lon="5.1038">
        <ele>148.80000305176</ele>
        <time>2025-07-10T18:16:37.000Z</time>
      </trkpt>
      <trkpt lat="43.83321" lon="5.10373">
        <ele>149.80000305176</ele>
        <time>2025-07-10T18:16:40.000Z</time>
      </trkpt>
      <trkpt lat="43.83317" lon="5.10363">
        <ele>150.80000305176</ele>
        <time>2025-07-10T18:16:45.000Z</time>
      </trkpt>
      <trkpt lat="43.83317" lon="5.10358">
        <ele>150.80000305176</ele>
        <time>2025-07-10T18:16:47.000Z</time>
      </trkpt>
      <trkpt lat="43.83318" lon="5.10355">
        <ele>151</ele>
        <time>2025-07-10T18:16:48.000Z</time>
      </trkpt>
      <trkpt lat="43.83318" lon="5.10349">
        <ele>150.80000305176</ele>
        <time>2025-07-10T18:16:51.000Z</time>
      </trkpt>
      <trkpt lat="43.83316" lon="5.10345">
        <ele>150.19999694824</ele>
        <time>2025-07-10T18:16:53.000Z</time>
      </trkpt>
      <trkpt lat="43.8331" lon="5.10339">
        <ele>150.60000610352</ele>
        <time>2025-07-10T18:16:58.000Z</time>
      </trkpt>
      <trkpt lat="43.83304" lon="5.10336">
        <ele>152.19999694824</ele>
        <time>2025-07-10T18:17:02.000Z</time>
      </trkpt>
      <trkpt lat="43.83299" lon="5.10333">
        <ele>153</ele>
        <time>2025-07-10T18:17:05.000Z</time>
      </trkpt>
      <trkpt lat="43.83298" lon="5.10331">
        <ele>153.60000610352</ele>
        <time>2025-07-10T18:17:06.000Z</time>
      </trkpt>
      <trkpt lat="43.83293" lon="5.10325">
        <ele>154.60000610352</ele>
        <time>2025-07-10T18:17:10.000Z</time>
      </trkpt>
      <trkpt lat="43.83292" lon="5.10323">
        <ele>154.60000610352</ele>
        <time>2025-07-10T18:17:11.000Z</time>
      </trkpt>
      <trkpt lat="43.83292" lon="5.10321">
        <ele>154.60000610352</ele>
        <time>2025-07-10T18:17:12.000Z</time>
      </trkpt>
      <trkpt lat="43.83291" lon="5.10304">
        <ele>153.39999389648</ele>
        <time>2025-07-10T18:17:18.000Z</time>
      </trkpt>
      <trkpt lat="43.83291" lon="5.10301">
        <ele>153.19999694824</ele>
        <time>2025-07-10T18:17:19.000Z</time>
      </trkpt>
      <trkpt lat="43.83289" lon="5.10294">
        <ele>152.39999389648</ele>
        <time>2025-07-10T18:17:22.000Z</time>
      </trkpt>
      <trkpt lat="43.83288" lon="5.10292">
        <ele>152.19999694824</ele>
        <time>2025-07-10T18:17:23.000Z</time>
      </trkpt>
      <trkpt lat="43.83286" lon="5.10291">
        <ele>151.80000305176</ele>
        <time>2025-07-10T18:17:25.000Z</time>
      </trkpt>
      <trkpt lat="43.83274" lon="5.10282">
        <ele>152.39999389648</ele>
        <time>2025-07-10T18:17:31.000Z</time>
      </trkpt>
      <trkpt lat="43.83273" lon="5.1028">
        <ele>152.60000610352</ele>
        <time>2025-07-10T18:17:32.000Z</time>
      </trkpt>
      <trkpt lat="43.83268" lon="5.10276">
        <ele>153.19999694824</ele>
        <time>2025-07-10T18:17:36.000Z</time>
      </trkpt>
      <trkpt lat="43.83266" lon="5.10275">
        <ele>153.39999389648</ele>
        <time>2025-07-10T18:17:37.000Z</time>
      </trkpt>
      <trkpt lat="43.83265" lon="5.10274">
        <ele>153.60000610352</ele>
        <time>2025-07-10T18:17:38.000Z</time>
      </trkpt>
      <trkpt lat="43.83264" lon="5.10273">
        <ele>154</ele>
        <time>2025-07-10T18:17:39.000Z</time>
      </trkpt>
      <trkpt lat="43.83258" lon="5.1027">
        <ele>154.80000305176</ele>
        <time>2025-07-10T18:17:42.000Z</time>
      </trkpt>
      <trkpt lat="43.83255" lon="5.10267">
        <ele>155</ele>
        <time>2025-07-10T18:17:44.000Z</time>
      </trkpt>
      <trkpt lat="43.83252" lon="5.1026">
        <ele>155.19999694824</ele>
        <time>2025-07-10T18:17:47.000Z</time>
      </trkpt>
      <trkpt lat="43.83246" lon="5.10245">
        <ele>155.39999389648</ele>
        <time>2025-07-10T18:17:54.000Z</time>
      </trkpt>
      <trkpt lat="43.83246" lon="5.10243">
        <ele>155.39999389648</ele>
        <time>2025-07-10T18:17:55.000Z</time>
      </trkpt>
      <trkpt lat="43.83244" lon="5.10239">
        <ele>155.60000610352</ele>
        <time>2025-07-10T18:17:57.000Z</time>
      </trkpt>
      <trkpt lat="43.83245" lon="5.10234">
        <ele>155.60000610352</ele>
        <time>2025-07-10T18:17:59.000Z</time>
      </trkpt>
      <trkpt lat="43.83249" lon="5.10228">
        <ele>155.60000610352</ele>
        <time>2025-07-10T18:18:03.000Z</time>
      </trkpt>
      <trkpt lat="43.8325" lon="5.10225">
        <ele>155.39999389648</ele>
        <time>2025-07-10T18:18:04.000Z</time>
      </trkpt>
      <trkpt lat="43.83248" lon="5.10219">
        <ele>154.60000610352</ele>
        <time>2025-07-10T18:18:06.000Z</time>
      </trkpt>
      <trkpt lat="43.83246" lon="5.10214">
        <ele>154.39999389648</ele>
        <time>2025-07-10T18:18:09.000Z</time>
      </trkpt>
      <trkpt lat="43.83242" lon="5.10205">
        <ele>154.60000610352</ele>
        <time>2025-07-10T18:18:14.000Z</time>
      </trkpt>
      <trkpt lat="43.83238" lon="5.10185">
        <ele>155</ele>
        <time>2025-07-10T18:18:22.000Z</time>
      </trkpt>
      <trkpt lat="43.8323" lon="5.10166">
        <ele>155.60000610352</ele>
        <time>2025-07-10T18:18:29.000Z</time>
      </trkpt>
      <trkpt lat="43.83229" lon="5.10163">
        <ele>155.80000305176</ele>
        <time>2025-07-10T18:18:31.000Z</time>
      </trkpt>
      <trkpt lat="43.83225" lon="5.10154">
        <ele>156</ele>
        <time>2025-07-10T18:18:34.000Z</time>
      </trkpt>
      <trkpt lat="43.83222" lon="5.10143">
        <ele>155.60000610352</ele>
        <time>2025-07-10T18:18:38.000Z</time>
      </trkpt>
      <trkpt lat="43.83219" lon="5.10138">
        <ele>155.39999389648</ele>
        <time>2025-07-10T18:18:40.000Z</time>
      </trkpt>
      <trkpt lat="43.83217" lon="5.10137">
        <ele>155.19999694824</ele>
        <time>2025-07-10T18:18:41.000Z</time>
      </trkpt>
      <trkpt lat="43.8321" lon="5.10133">
        <ele>155.19999694824</ele>
        <time>2025-07-10T18:18:45.000Z</time>
      </trkpt>
      <trkpt lat="43.83202" lon="5.10127">
        <ele>154.60000610352</ele>
        <time>2025-07-10T18:18:50.000Z</time>
      </trkpt>
      <trkpt lat="43.83198" lon="5.10124">
        <ele>154.60000610352</ele>
        <time>2025-07-10T18:18:53.000Z</time>
      </trkpt>
      <trkpt lat="43.83185" lon="5.1012">
        <ele>154.19999694824</ele>
        <time>2025-07-10T18:18:59.000Z</time>
      </trkpt>
      <trkpt lat="43.83178" lon="5.10125">
        <ele>154.39999389648</ele>
        <time>2025-07-10T18:19:05.000Z</time>
      </trkpt>
      <trkpt lat="43.83178" lon="5.10126">
        <ele>154.39999389648</ele>
        <time>2025-07-10T18:19:06.000Z</time>
      </trkpt>
      <trkpt lat="43.83177" lon="5.10135">
        <ele>155.19999694824</ele>
        <time>2025-07-10T18:19:10.000Z</time>
      </trkpt>
      <trkpt lat="43.83176" lon="5.10137">
        <ele>155.60000610352</ele>
        <time>2025-07-10T18:19:12.000Z</time>
      </trkpt>
      <trkpt lat="43.83174" lon="5.10139">
        <ele>156.19999694824</ele>
        <time>2025-07-10T18:19:14.000Z</time>
      </trkpt>
      <trkpt lat="43.83173" lon="5.10139">
        <ele>156.39999389648</ele>
        <time>2025-07-10T18:19:15.000Z</time>
      </trkpt>
      <trkpt lat="43.83167" lon="5.10138">
        <ele>154.60000610352</ele>
        <time>2025-07-10T18:19:21.000Z</time>
      </trkpt>
      <trkpt lat="43.83166" lon="5.10136">
        <ele>154</ele>
        <time>2025-07-10T18:19:22.000Z</time>
      </trkpt>
      <trkpt lat="43.83164" lon="5.10134">
        <ele>153.60000610352</ele>
        <time>2025-07-10T18:19:23.000Z</time>
      </trkpt>
      <trkpt lat="43.83163" lon="5.10132">
        <ele>153.39999389648</ele>
        <time>2025-07-10T18:19:24.000Z</time>
      </trkpt>
      <trkpt lat="43.83159" lon="5.10122">
        <ele>151.80000305176</ele>
        <time>2025-07-10T18:19:27.000Z</time>
      </trkpt>
      <trkpt lat="43.83157" lon="5.10119">
        <ele>151.60000610352</ele>
        <time>2025-07-10T18:19:28.000Z</time>
      </trkpt>
      <trkpt lat="43.83154" lon="5.10112">
        <ele>151.19999694824</ele>
        <time>2025-07-10T18:19:31.000Z</time>
      </trkpt>
      <trkpt lat="43.83155" lon="5.10111">
        <ele>151</ele>
        <time>2025-07-10T18:19:32.000Z</time>
      </trkpt>
      <trkpt lat="43.83155" lon="5.1011">
        <ele>150.80000305176</ele>
        <time>2025-07-10T18:19:33.000Z</time>
      </trkpt>
      <trkpt lat="43.83161" lon="5.101">
        <ele>150</ele>
        <time>2025-07-10T18:19:38.000Z</time>
      </trkpt>
      <trkpt lat="43.83162" lon="5.10098">
        <ele>149.60000610352</ele>
        <time>2025-07-10T18:19:39.000Z</time>
      </trkpt>
      <trkpt lat="43.83164" lon="5.10096">
        <ele>148.80000305176</ele>
        <time>2025-07-10T18:19:41.000Z</time>
      </trkpt>
      <trkpt lat="43.83166" lon="5.10096">
        <ele>148.60000610352</ele>
        <time>2025-07-10T18:19:42.000Z</time>
      </trkpt>
      <trkpt lat="43.83169" lon="5.10096">
        <ele>148.19999694824</ele>
        <time>2025-07-10T18:19:44.000Z</time>
      </trkpt>
      <trkpt lat="43.83177" lon="5.10093">
        <ele>147.39999389648</ele>
        <time>2025-07-10T18:19:48.000Z</time>
      </trkpt>
      <trkpt lat="43.83178" lon="5.10091">
        <ele>147.39999389648</ele>
        <time>2025-07-10T18:19:49.000Z</time>
      </trkpt>
      <trkpt lat="43.83179" lon="5.1009">
        <ele>147.19999694824</ele>
        <time>2025-07-10T18:19:50.000Z</time>
      </trkpt>
      <trkpt lat="43.83178" lon="5.10079">
        <ele>146</ele>
        <time>2025-07-10T18:19:54.000Z</time>
      </trkpt>
      <trkpt lat="43.83178" lon="5.10077">
        <ele>145.39999389648</ele>
        <time>2025-07-10T18:19:55.000Z</time>
      </trkpt>
      <trkpt lat="43.83179" lon="5.10072">
        <ele>144.60000610352</ele>
        <time>2025-07-10T18:19:57.000Z</time>
      </trkpt>
      <trkpt lat="43.83179" lon="5.10069">
        <ele>144.39999389648</ele>
        <time>2025-07-10T18:19:58.000Z</time>
      </trkpt>
      <trkpt lat="43.83179" lon="5.10065">
        <ele>143.80000305176</ele>
        <time>2025-07-10T18:20:00.000Z</time>
      </trkpt>
      <trkpt lat="43.83179" lon="5.10062">
        <ele>143.60000610352</ele>
        <time>2025-07-10T18:20:01.000Z</time>
      </trkpt>
      <trkpt lat="43.8318" lon="5.10058">
        <ele>142.39999389648</ele>
        <time>2025-07-10T18:20:03.000Z</time>
      </trkpt>
      <trkpt lat="43.83182" lon="5.10053">
        <ele>142</ele>
        <time>2025-07-10T18:20:05.000Z</time>
      </trkpt>
      <trkpt lat="43.83184" lon="5.1005">
        <ele>141.39999389648</ele>
        <time>2025-07-10T18:20:07.000Z</time>
      </trkpt>
      <trkpt lat="43.83186" lon="5.10047">
        <ele>140.39999389648</ele>
        <time>2025-07-10T18:20:09.000Z</time>
      </trkpt>
      <trkpt lat="43.8319" lon="5.10043">
        <ele>139.39999389648</ele>
        <time>2025-07-10T18:20:12.000Z</time>
      </trkpt>
      <trkpt lat="43.8319" lon="5.10043">
        <ele>139.19999694824</ele>
        <time>2025-07-10T18:20:13.000Z</time>
      </trkpt>
      <trkpt lat="43.83195" lon="5.10042">
        <ele>138.19999694824</ele>
        <time>2025-07-10T18:20:15.000Z</time>
      </trkpt>
      <trkpt lat="43.83199" lon="5.10039">
        <ele>136.80000305176</ele>
        <time>2025-07-10T18:20:18.000Z</time>
      </trkpt>
      <trkpt lat="43.83203" lon="5.10037">
        <ele>135.80000305176</ele>
        <time>2025-07-10T18:20:21.000Z</time>
      </trkpt>
      <trkpt lat="43.83204" lon="5.10036">
        <ele>135.60000610352</ele>
        <time>2025-07-10T18:20:22.000Z</time>
      </trkpt>
      <trkpt lat="43.83208" lon="5.10032">
        <ele>134.60000610352</ele>
        <time>2025-07-10T18:20:25.000Z</time>
      </trkpt>
      <trkpt lat="43.83208" lon="5.1003">
        <ele>134.19999694824</ele>
        <time>2025-07-10T18:20:26.000Z</time>
      </trkpt>
      <trkpt lat="43.83208" lon="5.10028">
        <ele>133.19999694824</ele>
        <time>2025-07-10T18:20:28.000Z</time>
      </trkpt>
      <trkpt lat="43.83207" lon="5.10027">
        <ele>133</ele>
        <time>2025-07-10T18:20:29.000Z</time>
      </trkpt>
      <trkpt lat="43.83204" lon="5.10022">
        <ele>131.39999389648</ele>
        <time>2025-07-10T18:20:32.000Z</time>
      </trkpt>
      <trkpt lat="43.83201" lon="5.10011">
        <ele>130.39999389648</ele>
        <time>2025-07-10T18:20:36.000Z</time>
      </trkpt>
      <trkpt lat="43.83196" lon="5.09997">
        <ele>130.39999389648</ele>
        <time>2025-07-10T18:20:41.000Z</time>
      </trkpt>
      <trkpt lat="43.83205" lon="5.09987">
        <ele>130.80000305176</ele>
        <time>2025-07-10T18:20:47.000Z</time>
      </trkpt>
      <trkpt lat="43.83212" lon="5.09979">
        <ele>130.60000610352</ele>
        <time>2025-07-10T18:20:51.000Z</time>
      </trkpt>
      <trkpt lat="43.83212" lon="5.09978">
        <ele>130.39999389648</ele>
        <time>2025-07-10T18:20:52.000Z</time>
      </trkpt>
      <trkpt lat="43.83211" lon="5.09976">
        <ele>130.60000610352</ele>
        <time>2025-07-10T18:20:54.000Z</time>
      </trkpt>
      <trkpt lat="43.83207" lon="5.09976">
        <ele>131.19999694824</ele>
        <time>2025-07-10T18:20:57.000Z</time>
      </trkpt>
      <trkpt lat="43.83206" lon="5.09976">
        <ele>131.39999389648</ele>
        <time>2025-07-10T18:20:58.000Z</time>
      </trkpt>
      <trkpt lat="43.83203" lon="5.09975">
        <ele>132.19999694824</ele>
        <time>2025-07-10T18:21:01.000Z</time>
      </trkpt>
      <trkpt lat="43.83203" lon="5.09975">
        <ele>132.60000610352</ele>
        <time>2025-07-10T18:21:02.000Z</time>
      </trkpt>
      <trkpt lat="43.832" lon="5.09974">
        <ele>133.19999694824</ele>
        <time>2025-07-10T18:21:04.000Z</time>
      </trkpt>
      <trkpt lat="43.83197" lon="5.09975">
        <ele>133.80000305176</ele>
        <time>2025-07-10T18:21:06.000Z</time>
      </trkpt>
      <trkpt lat="43.83192" lon="5.09975">
        <ele>134.60000610352</ele>
        <time>2025-07-10T18:21:10.000Z</time>
      </trkpt>
      <trkpt lat="43.8319" lon="5.09974">
        <ele>134.80000305176</ele>
        <time>2025-07-10T18:21:12.000Z</time>
      </trkpt>
      <trkpt lat="43.83188" lon="5.09973">
        <ele>135.60000610352</ele>
        <time>2025-07-10T18:21:14.000Z</time>
      </trkpt>
      <trkpt lat="43.83187" lon="5.09972">
        <ele>136</ele>
        <time>2025-07-10T18:21:16.000Z</time>
      </trkpt>
      <trkpt lat="43.83183" lon="5.09973">
        <ele>136.60000610352</ele>
        <time>2025-07-10T18:21:18.000Z</time>
      </trkpt>
      <trkpt lat="43.83181" lon="5.09973">
        <ele>137</ele>
        <time>2025-07-10T18:21:20.000Z</time>
      </trkpt>
      <trkpt lat="43.83178" lon="5.09973">
        <ele>138.19999694824</ele>
        <time>2025-07-10T18:21:23.000Z</time>
      </trkpt>
      <trkpt lat="43.83175" lon="5.09973">
        <ele>139</ele>
        <time>2025-07-10T18:21:25.000Z</time>
      </trkpt>
      <trkpt lat="43.83174" lon="5.09973">
        <ele>139.19999694824</ele>
        <time>2025-07-10T18:21:26.000Z</time>
      </trkpt>
      <trkpt lat="43.83169" lon="5.09975">
        <ele>140.39999389648</ele>
        <time>2025-07-10T18:21:30.000Z</time>
      </trkpt>
      <trkpt lat="43.83166" lon="5.09975">
        <ele>140.80000305176</ele>
        <time>2025-07-10T18:21:32.000Z</time>
      </trkpt>
      <trkpt lat="43.83163" lon="5.09974">
        <ele>141.39999389648</ele>
        <time>2025-07-10T18:21:35.000Z</time>
      </trkpt>
      <trkpt lat="43.8316" lon="5.09975">
        <ele>141.80000305176</ele>
        <time>2025-07-10T18:21:37.000Z</time>
      </trkpt>
      <trkpt lat="43.83158" lon="5.09974">
        <ele>142.19999694824</ele>
        <time>2025-07-10T18:21:39.000Z</time>
      </trkpt>
      <trkpt lat="43.83155" lon="5.09973">
        <ele>142.39999389648</ele>
        <time>2025-07-10T18:21:41.000Z</time>
      </trkpt>
      <trkpt lat="43.83154" lon="5.09973">
        <ele>143</ele>
        <time>2025-07-10T18:21:42.000Z</time>
      </trkpt>
      <trkpt lat="43.83151" lon="5.0997">
        <ele>143.80000305176</ele>
        <time>2025-07-10T18:21:45.000Z</time>
      </trkpt>
      <trkpt lat="43.8315" lon="5.09969">
        <ele>144</ele>
        <time>2025-07-10T18:21:46.000Z</time>
      </trkpt>
      <trkpt lat="43.83148" lon="5.09967">
        <ele>145.19999694824</ele>
        <time>2025-07-10T18:21:49.000Z</time>
      </trkpt>
      <trkpt lat="43.83146" lon="5.09965">
        <ele>145.80000305176</ele>
        <time>2025-07-10T18:21:52.000Z</time>
      </trkpt>
      <trkpt lat="43.83143" lon="5.09963">
        <ele>146.19999694824</ele>
        <time>2025-07-10T18:21:54.000Z</time>
      </trkpt>
      <trkpt lat="43.83143" lon="5.09962">
        <ele>146.39999389648</ele>
        <time>2025-07-10T18:21:55.000Z</time>
      </trkpt>
      <trkpt lat="43.83141" lon="5.09958">
        <ele>146.80000305176</ele>
        <time>2025-07-10T18:21:57.000Z</time>
      </trkpt>
      <trkpt lat="43.83139" lon="5.09953">
        <ele>147.60000610352</ele>
        <time>2025-07-10T18:22:02.000Z</time>
      </trkpt>
      <trkpt lat="43.83137" lon="5.09952">
        <ele>148.19999694824</ele>
        <time>2025-07-10T18:22:04.000Z</time>
      </trkpt>
      <trkpt lat="43.83136" lon="5.09951">
        <ele>148.80000305176</ele>
        <time>2025-07-10T18:22:05.000Z</time>
      </trkpt>
      <trkpt lat="43.83133" lon="5.09947">
        <ele>150</ele>
        <time>2025-07-10T18:22:10.000Z</time>
      </trkpt>
      <trkpt lat="43.83131" lon="5.09945">
        <ele>150.60000610352</ele>
        <time>2025-07-10T18:22:12.000Z</time>
      </trkpt>
      <trkpt lat="43.83128" lon="5.09943">
        <ele>151</ele>
        <time>2025-07-10T18:22:14.000Z</time>
      </trkpt>
      <trkpt lat="43.83124" lon="5.0994">
        <ele>152.19999694824</ele>
        <time>2025-07-10T18:22:19.000Z</time>
      </trkpt>
      <trkpt lat="43.83123" lon="5.09938">
        <ele>152.60000610352</ele>
        <time>2025-07-10T18:22:21.000Z</time>
      </trkpt>
      <trkpt lat="43.8312" lon="5.09934">
        <ele>153.60000610352</ele>
        <time>2025-07-10T18:22:25.000Z</time>
      </trkpt>
      <trkpt lat="43.83118" lon="5.09931">
        <ele>154</ele>
        <time>2025-07-10T18:22:28.000Z</time>
      </trkpt>
      <trkpt lat="43.83114" lon="5.09927">
        <ele>154.60000610352</ele>
        <time>2025-07-10T18:22:31.000Z</time>
      </trkpt>
      <trkpt lat="43.8311" lon="5.09922">
        <ele>154.80000305176</ele>
        <time>2025-07-10T18:22:35.000Z</time>
      </trkpt>
      <trkpt lat="43.83097" lon="5.09912">
        <ele>155.19999694824</ele>
        <time>2025-07-10T18:22:43.000Z</time>
      </trkpt>
      <trkpt lat="43.83085" lon="5.09907">
        <ele>155.19999694824</ele>
        <time>2025-07-10T18:22:49.000Z</time>
      </trkpt>
      <trkpt lat="43.83073" lon="5.09909">
        <ele>155.80000305176</ele>
        <time>2025-07-10T18:22:54.000Z</time>
      </trkpt>
      <trkpt lat="43.83071" lon="5.0991">
        <ele>156</ele>
        <time>2025-07-10T18:22:55.000Z</time>
      </trkpt>
      <trkpt lat="43.83066" lon="5.09913">
        <ele>156.39999389648</ele>
        <time>2025-07-10T18:22:58.000Z</time>
      </trkpt>
      <trkpt lat="43.83058" lon="5.09914">
        <ele>156.80000305176</ele>
        <time>2025-07-10T18:23:02.000Z</time>
      </trkpt>
      <trkpt lat="43.83054" lon="5.09913">
        <ele>157.60000610352</ele>
        <time>2025-07-10T18:23:04.000Z</time>
      </trkpt>
      <trkpt lat="43.83053" lon="5.09913">
        <ele>158</ele>
        <time>2025-07-10T18:23:05.000Z</time>
      </trkpt>
      <trkpt lat="43.83041" lon="5.0991">
        <ele>159</ele>
        <time>2025-07-10T18:23:11.000Z</time>
      </trkpt>
      <trkpt lat="43.83039" lon="5.09909">
        <ele>159</ele>
        <time>2025-07-10T18:23:12.000Z</time>
      </trkpt>
      <trkpt lat="43.83026" lon="5.099">
        <ele>160</ele>
        <time>2025-07-10T18:23:19.000Z</time>
      </trkpt>
      <trkpt lat="43.83022" lon="5.09897">
        <ele>160.19999694824</ele>
        <time>2025-07-10T18:23:21.000Z</time>
      </trkpt>
      <trkpt lat="43.83013" lon="5.09885">
        <ele>161.19999694824</ele>
        <time>2025-07-10T18:23:27.000Z</time>
      </trkpt>
      <trkpt lat="43.83012" lon="5.09883">
        <ele>161.39999389648</ele>
        <time>2025-07-10T18:23:28.000Z</time>
      </trkpt>
      <trkpt lat="43.83009" lon="5.0988">
        <ele>161.60000610352</ele>
        <time>2025-07-10T18:23:30.000Z</time>
      </trkpt>
      <trkpt lat="43.82998" lon="5.09874">
        <ele>162.19999694824</ele>
        <time>2025-07-10T18:23:35.000Z</time>
      </trkpt>
      <trkpt lat="43.82995" lon="5.09874">
        <ele>162.39999389648</ele>
        <time>2025-07-10T18:23:37.000Z</time>
      </trkpt>
      <trkpt lat="43.82978" lon="5.09867">
        <ele>163</ele>
        <time>2025-07-10T18:23:45.000Z</time>
      </trkpt>
      <trkpt lat="43.82974" lon="5.09863">
        <ele>163.19999694824</ele>
        <time>2025-07-10T18:23:48.000Z</time>
      </trkpt>
      <trkpt lat="43.8297" lon="5.09854">
        <ele>164.19999694824</ele>
        <time>2025-07-10T18:23:52.000Z</time>
      </trkpt>
      <trkpt lat="43.8297" lon="5.09851">
        <ele>164.39999389648</ele>
        <time>2025-07-10T18:23:53.000Z</time>
      </trkpt>
      <trkpt lat="43.82964" lon="5.09836">
        <ele>165.39999389648</ele>
        <time>2025-07-10T18:24:00.000Z</time>
      </trkpt>
      <trkpt lat="43.82963" lon="5.09834">
        <ele>165.39999389648</ele>
        <time>2025-07-10T18:24:01.000Z</time>
      </trkpt>
      <trkpt lat="43.82949" lon="5.09825">
        <ele>166.19999694824</ele>
        <time>2025-07-10T18:24:09.000Z</time>
      </trkpt>
      <trkpt lat="43.82943" lon="5.09823">
        <ele>166.80000305176</ele>
        <time>2025-07-10T18:24:12.000Z</time>
      </trkpt>
      <trkpt lat="43.82931" lon="5.09817">
        <ele>167.60000610352</ele>
        <time>2025-07-10T18:24:19.000Z</time>
      </trkpt>
      <trkpt lat="43.82925" lon="5.09813">
        <ele>168</ele>
        <time>2025-07-10T18:24:23.000Z</time>
      </trkpt>
      <trkpt lat="43.82921" lon="5.09812">
        <ele>168.39999389648</ele>
        <time>2025-07-10T18:24:25.000Z</time>
      </trkpt>
      <trkpt lat="43.82918" lon="5.09811">
        <ele>168.60000610352</ele>
        <time>2025-07-10T18:24:26.000Z</time>
      </trkpt>
      <trkpt lat="43.82908" lon="5.09805">
        <ele>169.19999694824</ele>
        <time>2025-07-10T18:24:31.000Z</time>
      </trkpt>
      <trkpt lat="43.82904" lon="5.09804">
        <ele>169.60000610352</ele>
        <time>2025-07-10T18:24:33.000Z</time>
      </trkpt>
      <trkpt lat="43.82899" lon="5.09801">
        <ele>170.19999694824</ele>
        <time>2025-07-10T18:24:36.000Z</time>
      </trkpt>
      <trkpt lat="43.82887" lon="5.09798">
        <ele>170.60000610352</ele>
        <time>2025-07-10T18:24:42.000Z</time>
      </trkpt>
      <trkpt lat="43.82881" lon="5.09798">
        <ele>171.19999694824</ele>
        <time>2025-07-10T18:24:45.000Z</time>
      </trkpt>
      <trkpt lat="43.82876" lon="5.09797">
        <ele>171.60000610352</ele>
        <time>2025-07-10T18:24:48.000Z</time>
      </trkpt>
      <trkpt lat="43.82872" lon="5.09795">
        <ele>172</ele>
        <time>2025-07-10T18:24:51.000Z</time>
      </trkpt>
      <trkpt lat="43.82868" lon="5.09794">
        <ele>172.60000610352</ele>
        <time>2025-07-10T18:24:53.000Z</time>
      </trkpt>
      <trkpt lat="43.82863" lon="5.09791">
        <ele>173</ele>
        <time>2025-07-10T18:24:56.000Z</time>
      </trkpt>
      <trkpt lat="43.82848" lon="5.09774">
        <ele>172.39999389648</ele>
        <time>2025-07-10T18:25:05.000Z</time>
      </trkpt>
      <trkpt lat="43.82839" lon="5.09764">
        <ele>172</ele>
        <time>2025-07-10T18:25:10.000Z</time>
      </trkpt>
      <trkpt lat="43.82829" lon="5.09753">
        <ele>171.60000610352</ele>
        <time>2025-07-10T18:25:15.000Z</time>
      </trkpt>
      <trkpt lat="43.82812" lon="5.09737">
        <ele>172.80000305176</ele>
        <time>2025-07-10T18:25:24.000Z</time>
      </trkpt>
      <trkpt lat="43.82809" lon="5.09734">
        <ele>172.60000610352</ele>
        <time>2025-07-10T18:25:26.000Z</time>
      </trkpt>
      <trkpt lat="43.82795" lon="5.09719">
        <ele>172.39999389648</ele>
        <time>2025-07-10T18:25:34.000Z</time>
      </trkpt>
      <trkpt lat="43.82791" lon="5.09715">
        <ele>172.19999694824</ele>
        <time>2025-07-10T18:25:36.000Z</time>
      </trkpt>
      <trkpt lat="43.8278" lon="5.09702">
        <ele>172.80000305176</ele>
        <time>2025-07-10T18:25:42.000Z</time>
      </trkpt>
      <trkpt lat="43.82768" lon="5.09691">
        <ele>172.60000610352</ele>
        <time>2025-07-10T18:25:48.000Z</time>
      </trkpt>
      <trkpt lat="43.82751" lon="5.09679">
        <ele>171.39999389648</ele>
        <time>2025-07-10T18:25:55.000Z</time>
      </trkpt>
      <trkpt lat="43.82746" lon="5.09677">
        <ele>170.80000305176</ele>
        <time>2025-07-10T18:25:57.000Z</time>
      </trkpt>
      <trkpt lat="43.82741" lon="5.09675">
        <ele>170.39999389648</ele>
        <time>2025-07-10T18:25:59.000Z</time>
      </trkpt>
      <trkpt lat="43.82725" lon="5.09672">
        <ele>170.39999389648</ele>
        <time>2025-07-10T18:26:05.000Z</time>
      </trkpt>
      <trkpt lat="43.82707" lon="5.09669">
        <ele>170.60000610352</ele>
        <time>2025-07-10T18:26:12.000Z</time>
      </trkpt>
      <trkpt lat="43.82701" lon="5.09668">
        <ele>170.80000305176</ele>
        <time>2025-07-10T18:26:14.000Z</time>
      </trkpt>
      <trkpt lat="43.82679" lon="5.09656">
        <ele>170.39999389648</ele>
        <time>2025-07-10T18:26:23.000Z</time>
      </trkpt>
      <trkpt lat="43.82677" lon="5.09654">
        <ele>170.19999694824</ele>
        <time>2025-07-10T18:26:24.000Z</time>
      </trkpt>
      <trkpt lat="43.82663" lon="5.09638">
        <ele>170</ele>
        <time>2025-07-10T18:26:31.000Z</time>
      </trkpt>
      <trkpt lat="43.82659" lon="5.09634">
        <ele>170</ele>
        <time>2025-07-10T18:26:33.000Z</time>
      </trkpt>
      <trkpt lat="43.8265" lon="5.09621">
        <ele>169</ele>
        <time>2025-07-10T18:26:38.000Z</time>
      </trkpt>
      <trkpt lat="43.82642" lon="5.09612">
        <ele>168.60000610352</ele>
        <time>2025-07-10T18:26:42.000Z</time>
      </trkpt>
      <trkpt lat="43.82633" lon="5.096">
        <ele>168.19999694824</ele>
        <time>2025-07-10T18:26:47.000Z</time>
      </trkpt>
      <trkpt lat="43.82629" lon="5.09594">
        <ele>167.80000305176</ele>
        <time>2025-07-10T18:26:49.000Z</time>
      </trkpt>
      <trkpt lat="43.82619" lon="5.09582">
        <ele>166.80000305176</ele>
        <time>2025-07-10T18:26:54.000Z</time>
      </trkpt>
      <trkpt lat="43.8261" lon="5.09568">
        <ele>166.39999389648</ele>
        <time>2025-07-10T18:26:59.000Z</time>
      </trkpt>
      <trkpt lat="43.82599" lon="5.09556">
        <ele>165.80000305176</ele>
        <time>2025-07-10T18:27:04.000Z</time>
      </trkpt>
      <trkpt lat="43.82593" lon="5.09552">
        <ele>165.39999389648</ele>
        <time>2025-07-10T18:27:06.000Z</time>
      </trkpt>
      <trkpt lat="43.82585" lon="5.09552">
        <ele>164.60000610352</ele>
        <time>2025-07-10T18:27:09.000Z</time>
      </trkpt>
      <trkpt lat="43.8258" lon="5.09554">
        <ele>164.60000610352</ele>
        <time>2025-07-10T18:27:11.000Z</time>
      </trkpt>
      <trkpt lat="43.82569" lon="5.09565">
        <ele>164.80000305176</ele>
        <time>2025-07-10T18:27:17.000Z</time>
      </trkpt>
      <trkpt lat="43.82561" lon="5.09566">
        <ele>164.39999389648</ele>
        <time>2025-07-10T18:27:20.000Z</time>
      </trkpt>
      <trkpt lat="43.82558" lon="5.09564">
        <ele>164.39999389648</ele>
        <time>2025-07-10T18:27:22.000Z</time>
      </trkpt>
      <trkpt lat="43.82557" lon="5.09562">
        <ele>164.60000610352</ele>
        <time>2025-07-10T18:27:23.000Z</time>
      </trkpt>
      <trkpt lat="43.82555" lon="5.09553">
        <ele>165.19999694824</ele>
        <time>2025-07-10T18:27:27.000Z</time>
      </trkpt>
      <trkpt lat="43.82555" lon="5.09547">
        <ele>165.80000305176</ele>
        <time>2025-07-10T18:27:30.000Z</time>
      </trkpt>
      <trkpt lat="43.82558" lon="5.09536">
        <ele>166.80000305176</ele>
        <time>2025-07-10T18:27:34.000Z</time>
      </trkpt>
      <trkpt lat="43.82558" lon="5.09518">
        <ele>166.39999389648</ele>
        <time>2025-07-10T18:27:40.000Z</time>
      </trkpt>
      <trkpt lat="43.82553" lon="5.09509">
        <ele>166.60000610352</ele>
        <time>2025-07-10T18:27:44.000Z</time>
      </trkpt>
      <trkpt lat="43.82551" lon="5.09509">
        <ele>166.60000610352</ele>
        <time>2025-07-10T18:27:45.000Z</time>
      </trkpt>
      <trkpt lat="43.82547" lon="5.09505">
        <ele>166.80000305176</ele>
        <time>2025-07-10T18:27:52.000Z</time>
      </trkpt>
      <trkpt lat="43.82536" lon="5.09503">
        <ele>166.80000305176</ele>
        <time>2025-07-10T18:27:57.000Z</time>
      </trkpt>
      <trkpt lat="43.82522" lon="5.09502">
        <ele>167.19999694824</ele>
        <time>2025-07-10T18:28:03.000Z</time>
      </trkpt>
      <trkpt lat="43.82513" lon="5.09501">
        <ele>168</ele>
        <time>2025-07-10T18:28:07.000Z</time>
      </trkpt>
      <trkpt lat="43.82505" lon="5.095">
        <ele>168.80000305176</ele>
        <time>2025-07-10T18:28:11.000Z</time>
      </trkpt>
      <trkpt lat="43.82503" lon="5.09499">
        <ele>168.80000305176</ele>
        <time>2025-07-10T18:28:12.000Z</time>
      </trkpt>
      <trkpt lat="43.82501" lon="5.09498">
        <ele>169.19999694824</ele>
        <time>2025-07-10T18:28:13.000Z</time>
      </trkpt>
      <trkpt lat="43.82491" lon="5.09494">
        <ele>170.60000610352</ele>
        <time>2025-07-10T18:28:18.000Z</time>
      </trkpt>
      <trkpt lat="43.82486" lon="5.09493">
        <ele>171</ele>
        <time>2025-07-10T18:28:20.000Z</time>
      </trkpt>
      <trkpt lat="43.82479" lon="5.09492">
        <ele>171.60000610352</ele>
        <time>2025-07-10T18:28:24.000Z</time>
      </trkpt>
      <trkpt lat="43.82468" lon="5.09493">
        <ele>172.39999389648</ele>
        <time>2025-07-10T18:28:29.000Z</time>
      </trkpt>
      <trkpt lat="43.82462" lon="5.09493">
        <ele>173</ele>
        <time>2025-07-10T18:28:32.000Z</time>
      </trkpt>
      <trkpt lat="43.82456" lon="5.09492">
        <ele>174</ele>
        <time>2025-07-10T18:28:35.000Z</time>
      </trkpt>
      <trkpt lat="43.82455" lon="5.09491">
        <ele>174.19999694824</ele>
        <time>2025-07-10T18:28:36.000Z</time>
      </trkpt>
      <trkpt lat="43.82441" lon="5.0949">
        <ele>174.80000305176</ele>
        <time>2025-07-10T18:28:43.000Z</time>
      </trkpt>
      <trkpt lat="43.82426" lon="5.09487">
        <ele>174.39999389648</ele>
        <time>2025-07-10T18:28:50.000Z</time>
      </trkpt>
      <trkpt lat="43.82413" lon="5.09485">
        <ele>174</ele>
        <time>2025-07-10T18:28:55.000Z</time>
      </trkpt>
      <trkpt lat="43.82412" lon="5.09479">
        <ele>173.39999389648</ele>
        <time>2025-07-10T18:28:57.000Z</time>
      </trkpt>
      <trkpt lat="43.82413" lon="5.09473">
        <ele>173.19999694824</ele>
        <time>2025-07-10T18:28:59.000Z</time>
      </trkpt>
      <trkpt lat="43.8242" lon="5.0946">
        <ele>174.19999694824</ele>
        <time>2025-07-10T18:29:04.000Z</time>
      </trkpt>
      <trkpt lat="43.82425" lon="5.09453">
        <ele>173.39999389648</ele>
        <time>2025-07-10T18:29:11.000Z</time>
      </trkpt>
      <trkpt lat="43.8243" lon="5.09448">
        <ele>173</ele>
        <time>2025-07-10T18:29:15.000Z</time>
      </trkpt>
      <trkpt lat="43.82432" lon="5.09446">
        <ele>173</ele>
        <time>2025-07-10T18:29:16.000Z</time>
      </trkpt>
      <trkpt lat="43.82437" lon="5.0944">
        <ele>173.39999389648</ele>
        <time>2025-07-10T18:29:19.000Z</time>
      </trkpt>
      <trkpt lat="43.82441" lon="5.09433">
        <ele>173.80000305176</ele>
        <time>2025-07-10T18:29:22.000Z</time>
      </trkpt>
      <trkpt lat="43.82443" lon="5.09431">
        <ele>174</ele>
        <time>2025-07-10T18:29:23.000Z</time>
      </trkpt>
      <trkpt lat="43.82453" lon="5.09418">
        <ele>174.39999389648</ele>
        <time>2025-07-10T18:29:29.000Z</time>
      </trkpt>
      <trkpt lat="43.82459" lon="5.09409">
        <ele>175</ele>
        <time>2025-07-10T18:29:33.000Z</time>
      </trkpt>
      <trkpt lat="43.82463" lon="5.094">
        <ele>175.39999389648</ele>
        <time>2025-07-10T18:29:36.000Z</time>
      </trkpt>
      <trkpt lat="43.82468" lon="5.09379">
        <ele>174.60000610352</ele>
        <time>2025-07-10T18:29:43.000Z</time>
      </trkpt>
      <trkpt lat="43.82468" lon="5.09366">
        <ele>174</ele>
        <time>2025-07-10T18:29:47.000Z</time>
      </trkpt>
      <trkpt lat="43.82466" lon="5.09356">
        <ele>173.19999694824</ele>
        <time>2025-07-10T18:29:50.000Z</time>
      </trkpt>
      <trkpt lat="43.82464" lon="5.09349">
        <ele>172.80000305176</ele>
        <time>2025-07-10T18:29:53.000Z</time>
      </trkpt>
      <trkpt lat="43.82457" lon="5.09328">
        <ele>171.80000305176</ele>
        <time>2025-07-10T18:29:59.000Z</time>
      </trkpt>
      <trkpt lat="43.82455" lon="5.09325">
        <ele>171.60000610352</ele>
        <time>2025-07-10T18:30:00.000Z</time>
      </trkpt>
      <trkpt lat="43.82449" lon="5.09309">
        <ele>170.60000610352</ele>
        <time>2025-07-10T18:30:05.000Z</time>
      </trkpt>
      <trkpt lat="43.82448" lon="5.09305">
        <ele>170.19999694824</ele>
        <time>2025-07-10T18:30:06.000Z</time>
      </trkpt>
      <trkpt lat="43.82445" lon="5.09298">
        <ele>169.19999694824</ele>
        <time>2025-07-10T18:30:08.000Z</time>
      </trkpt>
      <trkpt lat="43.82443" lon="5.09286">
        <ele>168.19999694824</ele>
        <time>2025-07-10T18:30:11.000Z</time>
      </trkpt>
      <trkpt lat="43.82442" lon="5.09279">
        <ele>167.39999389648</ele>
        <time>2025-07-10T18:30:13.000Z</time>
      </trkpt>
      <trkpt lat="43.82442" lon="5.09275">
        <ele>166.80000305176</ele>
        <time>2025-07-10T18:30:14.000Z</time>
      </trkpt>
      <trkpt lat="43.8244" lon="5.09253">
        <ele>165.39999389648</ele>
        <time>2025-07-10T18:30:20.000Z</time>
      </trkpt>
      <trkpt lat="43.82439" lon="5.09242">
        <ele>164.60000610352</ele>
        <time>2025-07-10T18:30:23.000Z</time>
      </trkpt>
      <trkpt lat="43.82439" lon="5.09236">
        <ele>164.39999389648</ele>
        <time>2025-07-10T18:30:25.000Z</time>
      </trkpt>
      <trkpt lat="43.82439" lon="5.09217">
        <ele>164.60000610352</ele>
        <time>2025-07-10T18:30:30.000Z</time>
      </trkpt>
      <trkpt lat="43.82447" lon="5.09197">
        <ele>164</ele>
        <time>2025-07-10T18:30:36.000Z</time>
      </trkpt>
      <trkpt lat="43.82455" lon="5.09187">
        <ele>163.80000305176</ele>
        <time>2025-07-10T18:30:40.000Z</time>
      </trkpt>
      <trkpt lat="43.82467" lon="5.09171">
        <ele>163.60000610352</ele>
        <time>2025-07-10T18:30:46.000Z</time>
      </trkpt>
      <trkpt lat="43.82475" lon="5.09166">
        <ele>163.19999694824</ele>
        <time>2025-07-10T18:30:49.000Z</time>
      </trkpt>
      <trkpt lat="43.82483" lon="5.09165">
        <ele>163.19999694824</ele>
        <time>2025-07-10T18:30:52.000Z</time>
      </trkpt>
      <trkpt lat="43.82502" lon="5.09163">
        <ele>162.39999389648</ele>
        <time>2025-07-10T18:30:59.000Z</time>
      </trkpt>
      <trkpt lat="43.82507" lon="5.09162">
        <ele>162.39999389648</ele>
        <time>2025-07-10T18:31:01.000Z</time>
      </trkpt>
      <trkpt lat="43.82513" lon="5.09161">
        <ele>162.19999694824</ele>
        <time>2025-07-10T18:31:03.000Z</time>
      </trkpt>
      <trkpt lat="43.82521" lon="5.09156">
        <ele>161.19999694824</ele>
        <time>2025-07-10T18:31:06.000Z</time>
      </trkpt>
      <trkpt lat="43.82524" lon="5.09154">
        <ele>161</ele>
        <time>2025-07-10T18:31:07.000Z</time>
      </trkpt>
      <trkpt lat="43.82532" lon="5.09149">
        <ele>159.80000305176</ele>
        <time>2025-07-10T18:31:10.000Z</time>
      </trkpt>
      <trkpt lat="43.82539" lon="5.09143">
        <ele>159</ele>
        <time>2025-07-10T18:31:13.000Z</time>
      </trkpt>
      <trkpt lat="43.82541" lon="5.09142">
        <ele>158.80000305176</ele>
        <time>2025-07-10T18:31:14.000Z</time>
      </trkpt>
      <trkpt lat="43.82552" lon="5.0913">
        <ele>158</ele>
        <time>2025-07-10T18:31:19.000Z</time>
      </trkpt>
      <trkpt lat="43.82557" lon="5.09126">
        <ele>157.80000305176</ele>
        <time>2025-07-10T18:31:21.000Z</time>
      </trkpt>
      <trkpt lat="43.82573" lon="5.09112">
        <ele>156.39999389648</ele>
        <time>2025-07-10T18:31:28.000Z</time>
      </trkpt>
      <trkpt lat="43.8259" lon="5.09103">
        <ele>156.19999694824</ele>
        <time>2025-07-10T18:31:36.000Z</time>
      </trkpt>
      <trkpt lat="43.82596" lon="5.091">
        <ele>155</ele>
        <time>2025-07-10T18:31:39.000Z</time>
      </trkpt>
      <trkpt lat="43.82604" lon="5.09099">
        <ele>154.80000305176</ele>
        <time>2025-07-10T18:31:42.000Z</time>
      </trkpt>
      <trkpt lat="43.82617" lon="5.09097">
        <ele>154.39999389648</ele>
        <time>2025-07-10T18:31:47.000Z</time>
      </trkpt>
      <trkpt lat="43.82627" lon="5.09095">
        <ele>154</ele>
        <time>2025-07-10T18:31:51.000Z</time>
      </trkpt>
      <trkpt lat="43.82645" lon="5.09092">
        <ele>153.39999389648</ele>
        <time>2025-07-10T18:31:58.000Z</time>
      </trkpt>
      <trkpt lat="43.8265" lon="5.09091">
        <ele>153</ele>
        <time>2025-07-10T18:32:00.000Z</time>
      </trkpt>
      <trkpt lat="43.82659" lon="5.09085">
        <ele>152.19999694824</ele>
        <time>2025-07-10T18:32:04.000Z</time>
      </trkpt>
      <trkpt lat="43.82662" lon="5.09084">
        <ele>152</ele>
        <time>2025-07-10T18:32:05.000Z</time>
      </trkpt>
      <trkpt lat="43.82678" lon="5.09074">
        <ele>151.60000610352</ele>
        <time>2025-07-10T18:32:11.000Z</time>
      </trkpt>
      <trkpt lat="43.82691" lon="5.09065">
        <ele>151.60000610352</ele>
        <time>2025-07-10T18:32:17.000Z</time>
      </trkpt>
      <trkpt lat="43.82705" lon="5.09063">
        <ele>152.39999389648</ele>
        <time>2025-07-10T18:32:24.000Z</time>
      </trkpt>
      <trkpt lat="43.82723" lon="5.09075">
        <ele>153</ele>
        <time>2025-07-10T18:32:32.000Z</time>
      </trkpt>
      <trkpt lat="43.82726" lon="5.09079">
        <ele>153</ele>
        <time>2025-07-10T18:32:34.000Z</time>
      </trkpt>
      <trkpt lat="43.82731" lon="5.09091">
        <ele>153.39999389648</ele>
        <time>2025-07-10T18:32:38.000Z</time>
      </trkpt>
      <trkpt lat="43.82735" lon="5.09116">
        <ele>153</ele>
        <time>2025-07-10T18:32:45.000Z</time>
      </trkpt>
      <trkpt lat="43.82734" lon="5.0912">
        <ele>152.80000305176</ele>
        <time>2025-07-10T18:32:46.000Z</time>
      </trkpt>
      <trkpt lat="43.82731" lon="5.09145">
        <ele>152.19999694824</ele>
        <time>2025-07-10T18:32:53.000Z</time>
      </trkpt>
      <trkpt lat="43.82725" lon="5.0917">
        <ele>152.80000305176</ele>
        <time>2025-07-10T18:33:01.000Z</time>
      </trkpt>
      <trkpt lat="43.82725" lon="5.09188">
        <ele>153.60000610352</ele>
        <time>2025-07-10T18:33:07.000Z</time>
      </trkpt>
      <trkpt lat="43.82731" lon="5.09211">
        <ele>153.39999389648</ele>
        <time>2025-07-10T18:33:14.000Z</time>
      </trkpt>
      <trkpt lat="43.82735" lon="5.09235">
        <ele>153</ele>
        <time>2025-07-10T18:33:21.000Z</time>
      </trkpt>
      <trkpt lat="43.82736" lon="5.09239">
        <ele>152.80000305176</ele>
        <time>2025-07-10T18:33:22.000Z</time>
      </trkpt>
      <trkpt lat="43.82736" lon="5.09262">
        <ele>152.80000305176</ele>
        <time>2025-07-10T18:33:29.000Z</time>
      </trkpt>
      <trkpt lat="43.82737" lon="5.09289">
        <ele>153.60000610352</ele>
        <time>2025-07-10T18:33:39.000Z</time>
      </trkpt>
      <trkpt lat="43.82735" lon="5.09298">
        <ele>154</ele>
        <time>2025-07-10T18:33:43.000Z</time>
      </trkpt>
      <trkpt lat="43.82733" lon="5.09299">
        <ele>154.39999389648</ele>
        <time>2025-07-10T18:33:44.000Z</time>
      </trkpt>
      <trkpt lat="43.82731" lon="5.093">
        <ele>154.60000610352</ele>
        <time>2025-07-10T18:33:45.000Z</time>
      </trkpt>
      <trkpt lat="43.82718" lon="5.09306">
        <ele>155</ele>
        <time>2025-07-10T18:33:53.000Z</time>
      </trkpt>
      <trkpt lat="43.82716" lon="5.09309">
        <ele>155</ele>
        <time>2025-07-10T18:33:56.000Z</time>
      </trkpt>
      <trkpt lat="43.82716" lon="5.09313">
        <ele>155.19999694824</ele>
        <time>2025-07-10T18:33:58.000Z</time>
      </trkpt>
      <trkpt lat="43.82716" lon="5.09318">
        <ele>155.19999694824</ele>
        <time>2025-07-10T18:34:00.000Z</time>
      </trkpt>
      <trkpt lat="43.82713" lon="5.09321">
        <ele>155.39999389648</ele>
        <time>2025-07-10T18:34:03.000Z</time>
      </trkpt>
      <trkpt lat="43.82705" lon="5.09333">
        <ele>155.80000305176</ele>
        <time>2025-07-10T18:34:10.000Z</time>
      </trkpt>
      <trkpt lat="43.82705" lon="5.0934">
        <ele>156</ele>
        <time>2025-07-10T18:34:13.000Z</time>
      </trkpt>
      <trkpt lat="43.82705" lon="5.09347">
        <ele>156.19999694824</ele>
        <time>2025-07-10T18:34:16.000Z</time>
      </trkpt>
      <trkpt lat="43.82698" lon="5.09357">
        <ele>156.19999694824</ele>
        <time>2025-07-10T18:34:21.000Z</time>
      </trkpt>
      <trkpt lat="43.82692" lon="5.09357">
        <ele>156.60000610352</ele>
        <time>2025-07-10T18:34:24.000Z</time>
      </trkpt>
      <trkpt lat="43.82686" lon="5.0936">
        <ele>156.80000305176</ele>
        <time>2025-07-10T18:34:27.000Z</time>
      </trkpt>
      <trkpt lat="43.82684" lon="5.09363">
        <ele>157</ele>
        <time>2025-07-10T18:34:29.000Z</time>
      </trkpt>
      <trkpt lat="43.82683" lon="5.09371">
        <ele>157</ele>
        <time>2025-07-10T18:34:32.000Z</time>
      </trkpt>
      <trkpt lat="43.82674" lon="5.0939">
        <ele>157.39999389648</ele>
        <time>2025-07-10T18:34:39.000Z</time>
      </trkpt>
      <trkpt lat="43.82666" lon="5.09403">
        <ele>157.60000610352</ele>
        <time>2025-07-10T18:34:44.000Z</time>
      </trkpt>
      <trkpt lat="43.82662" lon="5.09409">
        <ele>157.80000305176</ele>
        <time>2025-07-10T18:34:47.000Z</time>
      </trkpt>
      <trkpt lat="43.82648" lon="5.09423">
        <ele>158</ele>
        <time>2025-07-10T18:34:55.000Z</time>
      </trkpt>
      <trkpt lat="43.82641" lon="5.09429">
        <ele>158.80000305176</ele>
        <time>2025-07-10T18:34:59.000Z</time>
      </trkpt>
      <trkpt lat="43.82637" lon="5.09432">
        <ele>159.19999694824</ele>
        <time>2025-07-10T18:35:03.000Z</time>
      </trkpt>
      <trkpt lat="43.82634" lon="5.09431">
        <ele>159.19999694824</ele>
        <time>2025-07-10T18:35:06.000Z</time>
      </trkpt>
      <trkpt lat="43.82626" lon="5.09431">
        <ele>159.39999389648</ele>
        <time>2025-07-10T18:35:10.000Z</time>
      </trkpt>
      <trkpt lat="43.82618" lon="5.09432">
        <ele>160</ele>
        <time>2025-07-10T18:35:15.000Z</time>
      </trkpt>
      <trkpt lat="43.82615" lon="5.09432">
        <ele>160.19999694824</ele>
        <time>2025-07-10T18:35:17.000Z</time>
      </trkpt>
      <trkpt lat="43.8261" lon="5.09434">
        <ele>161</ele>
        <time>2025-07-10T18:35:21.000Z</time>
      </trkpt>
      <trkpt lat="43.82609" lon="5.09434">
        <ele>161.19999694824</ele>
        <time>2025-07-10T18:35:22.000Z</time>
      </trkpt>
      <trkpt lat="43.82607" lon="5.09433">
        <ele>161.39999389648</ele>
        <time>2025-07-10T18:35:23.000Z</time>
      </trkpt>
      <trkpt lat="43.82596" lon="5.09426">
        <ele>162</ele>
        <time>2025-07-10T18:35:31.000Z</time>
      </trkpt>
      <trkpt lat="43.82586" lon="5.09417">
        <ele>163.39999389648</ele>
        <time>2025-07-10T18:35:38.000Z</time>
      </trkpt>
      <trkpt lat="43.82581" lon="5.09415">
        <ele>163.80000305176</ele>
        <time>2025-07-10T18:35:41.000Z</time>
      </trkpt>
      <trkpt lat="43.82571" lon="5.09409">
        <ele>164.39999389648</ele>
        <time>2025-07-10T18:35:48.000Z</time>
      </trkpt>
      <trkpt lat="43.82569" lon="5.09408">
        <ele>164.60000610352</ele>
        <time>2025-07-10T18:35:49.000Z</time>
      </trkpt>
      <trkpt lat="43.82563" lon="5.09406">
        <ele>165.39999389648</ele>
        <time>2025-07-10T18:35:53.000Z</time>
      </trkpt>
      <trkpt lat="43.82562" lon="5.09406">
        <ele>165.60000610352</ele>
        <time>2025-07-10T18:35:56.000Z</time>
      </trkpt>
      <trkpt lat="43.82555" lon="5.09406">
        <ele>166</ele>
        <time>2025-07-10T18:36:01.000Z</time>
      </trkpt>
      <trkpt lat="43.82549" lon="5.09405">
        <ele>166</ele>
        <time>2025-07-10T18:36:04.000Z</time>
      </trkpt>
      <trkpt lat="43.82541" lon="5.09404">
        <ele>166.19999694824</ele>
        <time>2025-07-10T18:36:08.000Z</time>
      </trkpt>
      <trkpt lat="43.82539" lon="5.09404">
        <ele>166.39999389648</ele>
        <time>2025-07-10T18:36:09.000Z</time>
      </trkpt>
      <trkpt lat="43.82526" lon="5.09403">
        <ele>167.39999389648</ele>
        <time>2025-07-10T18:36:16.000Z</time>
      </trkpt>
      <trkpt lat="43.82524" lon="5.09403">
        <ele>167.80000305176</ele>
        <time>2025-07-10T18:36:17.000Z</time>
      </trkpt>
      <trkpt lat="43.8251" lon="5.09404">
        <ele>168.60000610352</ele>
        <time>2025-07-10T18:36:25.000Z</time>
      </trkpt>
      <trkpt lat="43.82509" lon="5.09405">
        <ele>168.80000305176</ele>
        <time>2025-07-10T18:36:26.000Z</time>
      </trkpt>
      <trkpt lat="43.82508" lon="5.09406">
        <ele>169</ele>
        <time>2025-07-10T18:36:27.000Z</time>
      </trkpt>
      <trkpt lat="43.82509" lon="5.09409">
        <ele>169.19999694824</ele>
        <time>2025-07-10T18:36:29.000Z</time>
      </trkpt>
      <trkpt lat="43.8251" lon="5.0941">
        <ele>169.19999694824</ele>
        <time>2025-07-10T18:36:30.000Z</time>
      </trkpt>
      <trkpt lat="43.82517" lon="5.09422">
        <ele>169.39999389648</ele>
        <time>2025-07-10T18:36:36.000Z</time>
      </trkpt>
      <trkpt lat="43.82522" lon="5.09439">
        <ele>168.39999389648</ele>
        <time>2025-07-10T18:36:44.000Z</time>
      </trkpt>
      <trkpt lat="43.82523" lon="5.09446">
        <ele>167.19999694824</ele>
        <time>2025-07-10T18:36:48.000Z</time>
      </trkpt>
      <trkpt lat="43.82525" lon="5.09453">
        <ele>166.19999694824</ele>
        <time>2025-07-10T18:36:51.000Z</time>
      </trkpt>
      <trkpt lat="43.82526" lon="5.09455">
        <ele>166.19999694824</ele>
        <time>2025-07-10T18:36:52.000Z</time>
      </trkpt>
      <trkpt lat="43.82527" lon="5.09462">
        <ele>165</ele>
        <time>2025-07-10T18:36:55.000Z</time>
      </trkpt>
      <trkpt lat="43.82527" lon="5.09469">
        <ele>163.60000610352</ele>
        <time>2025-07-10T18:36:58.000Z</time>
      </trkpt>
      <trkpt lat="43.82527" lon="5.09474">
        <ele>162.39999389648</ele>
        <time>2025-07-10T18:37:00.000Z</time>
      </trkpt>
      <trkpt lat="43.82528" lon="5.09479">
        <ele>162</ele>
        <time>2025-07-10T18:37:01.000Z</time>
      </trkpt>
      <trkpt lat="43.8253" lon="5.0948">
        <ele>161.39999389648</ele>
        <time>2025-07-10T18:37:03.000Z</time>
      </trkpt>
      <trkpt lat="43.82532" lon="5.09481">
        <ele>161.19999694824</ele>
        <time>2025-07-10T18:37:04.000Z</time>
      </trkpt>
      <trkpt lat="43.82539" lon="5.09481">
        <ele>160.39999389648</ele>
        <time>2025-07-10T18:37:07.000Z</time>
      </trkpt>
      <trkpt lat="43.82546" lon="5.09483">
        <ele>159.60000610352</ele>
        <time>2025-07-10T18:37:11.000Z</time>
      </trkpt>
      <trkpt lat="43.82548" lon="5.09484">
        <ele>159.19999694824</ele>
        <time>2025-07-10T18:37:12.000Z</time>
      </trkpt>
      <trkpt lat="43.82559" lon="5.09487">
        <ele>158</ele>
        <time>2025-07-10T18:37:18.000Z</time>
      </trkpt>
      <trkpt lat="43.82568" lon="5.0949">
        <ele>156.80000305176</ele>
        <time>2025-07-10T18:37:22.000Z</time>
      </trkpt>
      <trkpt lat="43.82578" lon="5.09495">
        <ele>156.19999694824</ele>
        <time>2025-07-10T18:37:26.000Z</time>
      </trkpt>
      <trkpt lat="43.82582" lon="5.09496">
        <ele>155.80000305176</ele>
        <time>2025-07-10T18:37:28.000Z</time>
      </trkpt>
      <trkpt lat="43.82592" lon="5.095">
        <ele>154.80000305176</ele>
        <time>2025-07-10T18:37:33.000Z</time>
      </trkpt>
      <trkpt lat="43.82594" lon="5.095">
        <ele>154.80000305176</ele>
        <time>2025-07-10T18:37:34.000Z</time>
      </trkpt>
      <trkpt lat="43.82603" lon="5.09501">
        <ele>153.60000610352</ele>
        <time>2025-07-10T18:37:38.000Z</time>
      </trkpt>
      <trkpt lat="43.8261" lon="5.09501">
        <ele>152.80000305176</ele>
        <time>2025-07-10T18:37:41.000Z</time>
      </trkpt>
      <trkpt lat="43.82615" lon="5.095">
        <ele>152.39999389648</ele>
        <time>2025-07-10T18:37:43.000Z</time>
      </trkpt>
      <trkpt lat="43.82632" lon="5.09506">
        <ele>151.60000610352</ele>
        <time>2025-07-10T18:37:50.000Z</time>
      </trkpt>
      <trkpt lat="43.82641" lon="5.09511">
        <ele>152.60000610352</ele>
        <time>2025-07-10T18:37:55.000Z</time>
      </trkpt>
      <trkpt lat="43.82652" lon="5.09515">
        <ele>153.39999389648</ele>
        <time>2025-07-10T18:38:01.000Z</time>
      </trkpt>
      <trkpt lat="43.82665" lon="5.09514">
        <ele>154.39999389648</ele>
        <time>2025-07-10T18:38:07.000Z</time>
      </trkpt>
      <trkpt lat="43.82669" lon="5.09513">
        <ele>154.60000610352</ele>
        <time>2025-07-10T18:38:09.000Z</time>
      </trkpt>
      <trkpt lat="43.82676" lon="5.09513">
        <ele>154.39999389648</ele>
        <time>2025-07-10T18:38:12.000Z</time>
      </trkpt>
      <trkpt lat="43.82683" lon="5.09515">
        <ele>154.60000610352</ele>
        <time>2025-07-10T18:38:15.000Z</time>
      </trkpt>
      <trkpt lat="43.82695" lon="5.09526">
        <ele>154.80000305176</ele>
        <time>2025-07-10T18:38:22.000Z</time>
      </trkpt>
      <trkpt lat="43.82704" lon="5.09538">
        <ele>155.39999389648</ele>
        <time>2025-07-10T18:38:29.000Z</time>
      </trkpt>
      <trkpt lat="43.82708" lon="5.09545">
        <ele>155.39999389648</ele>
        <time>2025-07-10T18:38:32.000Z</time>
      </trkpt>
      <trkpt lat="43.82714" lon="5.09552">
        <ele>156</ele>
        <time>2025-07-10T18:38:36.000Z</time>
      </trkpt>
      <trkpt lat="43.82721" lon="5.09555">
        <ele>156.19999694824</ele>
        <time>2025-07-10T18:38:40.000Z</time>
      </trkpt>
      <trkpt lat="43.8273" lon="5.09562">
        <ele>155.39999389648</ele>
        <time>2025-07-10T18:39:23.000Z</time>
      </trkpt>
      <trkpt lat="43.8273" lon="5.09562">
        <ele>155.39999389648</ele>
        <time>2025-07-10T18:39:24.000Z</time>
      </trkpt>
      <trkpt lat="43.82735" lon="5.09572">
        <ele>155.80000305176</ele>
        <time>2025-07-10T18:39:28.000Z</time>
      </trkpt>
      <trkpt lat="43.82737" lon="5.09578">
        <ele>155.80000305176</ele>
        <time>2025-07-10T18:39:30.000Z</time>
      </trkpt>
      <trkpt lat="43.82743" lon="5.09594">
        <ele>156.39999389648</ele>
        <time>2025-07-10T18:39:36.000Z</time>
      </trkpt>
      <trkpt lat="43.82747" lon="5.09599">
        <ele>157</ele>
        <time>2025-07-10T18:39:38.000Z</time>
      </trkpt>
      <trkpt lat="43.82753" lon="5.09608">
        <ele>157.39999389648</ele>
        <time>2025-07-10T18:39:43.000Z</time>
      </trkpt>
      <trkpt lat="43.82758" lon="5.09619">
        <ele>158.19999694824</ele>
        <time>2025-07-10T18:39:48.000Z</time>
      </trkpt>
      <trkpt lat="43.82765" lon="5.09625">
        <ele>158.80000305176</ele>
        <time>2025-07-10T18:39:52.000Z</time>
      </trkpt>
      <trkpt lat="43.8277" lon="5.09626">
        <ele>159.19999694824</ele>
        <time>2025-07-10T18:39:54.000Z</time>
      </trkpt>
      <trkpt lat="43.82779" lon="5.09631">
        <ele>159.80000305176</ele>
        <time>2025-07-10T18:39:59.000Z</time>
      </trkpt>
      <trkpt lat="43.82787" lon="5.09638">
        <ele>159.80000305176</ele>
        <time>2025-07-10T18:40:03.000Z</time>
      </trkpt>
      <trkpt lat="43.8279" lon="5.09642">
        <ele>160</ele>
        <time>2025-07-10T18:40:05.000Z</time>
      </trkpt>
      <trkpt lat="43.82796" lon="5.09647">
        <ele>160.39999389648</ele>
        <time>2025-07-10T18:40:08.000Z</time>
      </trkpt>
      <trkpt lat="43.82804" lon="5.09652">
        <ele>160.39999389648</ele>
        <time>2025-07-10T18:40:11.000Z</time>
      </trkpt>
      <trkpt lat="43.82806" lon="5.09653">
        <ele>160.60000610352</ele>
        <time>2025-07-10T18:40:12.000Z</time>
      </trkpt>
      <trkpt lat="43.82818" lon="5.09667">
        <ele>161</ele>
        <time>2025-07-10T18:40:19.000Z</time>
      </trkpt>
      <trkpt lat="43.8282" lon="5.09669">
        <ele>160.80000305176</ele>
        <time>2025-07-10T18:40:20.000Z</time>
      </trkpt>
      <trkpt lat="43.82829" lon="5.09678">
        <ele>160.80000305176</ele>
        <time>2025-07-10T18:40:25.000Z</time>
      </trkpt>
      <trkpt lat="43.8283" lon="5.0968">
        <ele>160.60000610352</ele>
        <time>2025-07-10T18:40:26.000Z</time>
      </trkpt>
      <trkpt lat="43.82845" lon="5.09696">
        <ele>160</ele>
        <time>2025-07-10T18:40:33.000Z</time>
      </trkpt>
      <trkpt lat="43.82847" lon="5.09698">
        <ele>160</ele>
        <time>2025-07-10T18:40:34.000Z</time>
      </trkpt>
      <trkpt lat="43.82858" lon="5.09706">
        <ele>160</ele>
        <time>2025-07-10T18:40:40.000Z</time>
      </trkpt>
      <trkpt lat="43.82871" lon="5.09714">
        <ele>159.39999389648</ele>
        <time>2025-07-10T18:40:46.000Z</time>
      </trkpt>
      <trkpt lat="43.82872" lon="5.09716">
        <ele>159.19999694824</ele>
        <time>2025-07-10T18:40:47.000Z</time>
      </trkpt>
      <trkpt lat="43.82885" lon="5.09726">
        <ele>158.39999389648</ele>
        <time>2025-07-10T18:40:53.000Z</time>
      </trkpt>
      <trkpt lat="43.82895" lon="5.09729">
        <ele>158.19999694824</ele>
        <time>2025-07-10T18:40:58.000Z</time>
      </trkpt>
      <trkpt lat="43.82908" lon="5.09736">
        <ele>157.60000610352</ele>
        <time>2025-07-10T18:41:04.000Z</time>
      </trkpt>
      <trkpt lat="43.82927" lon="5.09744">
        <ele>158</ele>
        <time>2025-07-10T18:41:13.000Z</time>
      </trkpt>
      <trkpt lat="43.82931" lon="5.09746">
        <ele>157.80000305176</ele>
        <time>2025-07-10T18:41:15.000Z</time>
      </trkpt>
      <trkpt lat="43.82945" lon="5.09763">
        <ele>157.80000305176</ele>
        <time>2025-07-10T18:41:23.000Z</time>
      </trkpt>
      <trkpt lat="43.82963" lon="5.09778">
        <ele>158.19999694824</ele>
        <time>2025-07-10T18:41:31.000Z</time>
      </trkpt>
      <trkpt lat="43.82966" lon="5.0978">
        <ele>158.19999694824</ele>
        <time>2025-07-10T18:41:32.000Z</time>
      </trkpt>
      <trkpt lat="43.82981" lon="5.09794">
        <ele>157.80000305176</ele>
        <time>2025-07-10T18:41:39.000Z</time>
      </trkpt>
      <trkpt lat="43.82984" lon="5.09795">
        <ele>157.60000610352</ele>
        <time>2025-07-10T18:41:40.000Z</time>
      </trkpt>
      <trkpt lat="43.82986" lon="5.09796">
        <ele>157.19999694824</ele>
        <time>2025-07-10T18:41:41.000Z</time>
      </trkpt>
      <trkpt lat="43.82999" lon="5.098">
        <ele>156.39999389648</ele>
        <time>2025-07-10T18:41:47.000Z</time>
      </trkpt>
      <trkpt lat="43.83002" lon="5.09802">
        <ele>156</ele>
        <time>2025-07-10T18:41:49.000Z</time>
      </trkpt>
      <trkpt lat="43.83009" lon="5.09813">
        <ele>155.80000305176</ele>
        <time>2025-07-10T18:41:53.000Z</time>
      </trkpt>
      <trkpt lat="43.83019" lon="5.09829">
        <ele>154.80000305176</ele>
        <time>2025-07-10T18:41:59.000Z</time>
      </trkpt>
      <trkpt lat="43.83024" lon="5.09836">
        <ele>153.60000610352</ele>
        <time>2025-07-10T18:42:02.000Z</time>
      </trkpt>
      <trkpt lat="43.8303" lon="5.09845">
        <ele>152.60000610352</ele>
        <time>2025-07-10T18:42:06.000Z</time>
      </trkpt>
      <trkpt lat="43.83036" lon="5.09849">
        <ele>151.60000610352</ele>
        <time>2025-07-10T18:42:09.000Z</time>
      </trkpt>
      <trkpt lat="43.83044" lon="5.09855">
        <ele>150.80000305176</ele>
        <time>2025-07-10T18:42:13.000Z</time>
      </trkpt>
      <trkpt lat="43.83047" lon="5.09856">
        <ele>150.39999389648</ele>
        <time>2025-07-10T18:42:14.000Z</time>
      </trkpt>
      <trkpt lat="43.83062" lon="5.09859">
        <ele>149.19999694824</ele>
        <time>2025-07-10T18:42:19.000Z</time>
      </trkpt>
      <trkpt lat="43.83062" lon="5.09859">
        <ele>149.19999694824</ele>
        <time>2025-07-10T18:42:20.000Z</time>
      </trkpt>
      <trkpt lat="43.83073" lon="5.09861">
        <ele>148</ele>
        <time>2025-07-10T18:42:24.000Z</time>
      </trkpt>
      <trkpt lat="43.83086" lon="5.09862">
        <ele>147.39999389648</ele>
        <time>2025-07-10T18:42:29.000Z</time>
      </trkpt>
      <trkpt lat="43.831" lon="5.09856">
        <ele>146.80000305176</ele>
        <time>2025-07-10T18:42:35.000Z</time>
      </trkpt>
      <trkpt lat="43.83105" lon="5.09853">
        <ele>146.39999389648</ele>
        <time>2025-07-10T18:42:37.000Z</time>
      </trkpt>
      <trkpt lat="43.83114" lon="5.0985">
        <ele>145.60000610352</ele>
        <time>2025-07-10T18:42:41.000Z</time>
      </trkpt>
      <trkpt lat="43.83121" lon="5.09845">
        <ele>145</ele>
        <time>2025-07-10T18:42:44.000Z</time>
      </trkpt>
      <trkpt lat="43.8313" lon="5.09839">
        <ele>144.39999389648</ele>
        <time>2025-07-10T18:42:48.000Z</time>
      </trkpt>
      <trkpt lat="43.8314" lon="5.09832">
        <ele>143.80000305176</ele>
        <time>2025-07-10T18:42:52.000Z</time>
      </trkpt>
      <trkpt lat="43.83147" lon="5.0983">
        <ele>143.39999389648</ele>
        <time>2025-07-10T18:42:55.000Z</time>
      </trkpt>
      <trkpt lat="43.83152" lon="5.09833">
        <ele>143</ele>
        <time>2025-07-10T18:42:57.000Z</time>
      </trkpt>
      <trkpt lat="43.83158" lon="5.09838">
        <ele>143.19999694824</ele>
        <time>2025-07-10T18:43:00.000Z</time>
      </trkpt>
      <trkpt lat="43.83167" lon="5.0985">
        <ele>144.19999694824</ele>
        <time>2025-07-10T18:43:06.000Z</time>
      </trkpt>
      <trkpt lat="43.83169" lon="5.09855">
        <ele>144.39999389648</ele>
        <time>2025-07-10T18:43:08.000Z</time>
      </trkpt>
      <trkpt lat="43.83169" lon="5.09862">
        <ele>144.60000610352</ele>
        <time>2025-07-10T18:43:10.000Z</time>
      </trkpt>
      <trkpt lat="43.8317" lon="5.0987">
        <ele>145.19999694824</ele>
        <time>2025-07-10T18:43:13.000Z</time>
      </trkpt>
      <trkpt lat="43.8317" lon="5.09873">
        <ele>145.60000610352</ele>
        <time>2025-07-10T18:43:14.000Z</time>
      </trkpt>
      <trkpt lat="43.8317" lon="5.09879">
        <ele>146</ele>
        <time>2025-07-10T18:43:17.000Z</time>
      </trkpt>
      <trkpt lat="43.83174" lon="5.09894">
        <ele>146.39999389648</ele>
        <time>2025-07-10T18:43:23.000Z</time>
      </trkpt>
      <trkpt lat="43.83175" lon="5.09904">
        <ele>146.39999389648</ele>
        <time>2025-07-10T18:43:27.000Z</time>
      </trkpt>
      <trkpt lat="43.83174" lon="5.09906">
        <ele>146</ele>
        <time>2025-07-10T18:43:28.000Z</time>
      </trkpt>
      <trkpt lat="43.8317" lon="5.09914">
        <ele>144.80000305176</ele>
        <time>2025-07-10T18:43:34.000Z</time>
      </trkpt>
      <trkpt lat="43.8317" lon="5.09915">
        <ele>144.39999389648</ele>
        <time>2025-07-10T18:43:35.000Z</time>
      </trkpt>
      <trkpt lat="43.83171" lon="5.0992">
        <ele>143.19999694824</ele>
        <time>2025-07-10T18:43:38.000Z</time>
      </trkpt>
      <trkpt lat="43.83173" lon="5.09923">
        <ele>142.39999389648</ele>
        <time>2025-07-10T18:43:40.000Z</time>
      </trkpt>
      <trkpt lat="43.83174" lon="5.09924">
        <ele>142.19999694824</ele>
        <time>2025-07-10T18:43:41.000Z</time>
      </trkpt>
      <trkpt lat="43.83176" lon="5.09928">
        <ele>141</ele>
        <time>2025-07-10T18:43:43.000Z</time>
      </trkpt>
      <trkpt lat="43.8318" lon="5.09933">
        <ele>140</ele>
        <time>2025-07-10T18:43:46.000Z</time>
      </trkpt>
      <trkpt lat="43.83182" lon="5.09935">
        <ele>138.80000305176</ele>
        <time>2025-07-10T18:43:48.000Z</time>
      </trkpt>
      <trkpt lat="43.83186" lon="5.09936">
        <ele>137.39999389648</ele>
        <time>2025-07-10T18:43:51.000Z</time>
      </trkpt>
      <trkpt lat="43.83191" lon="5.09936">
        <ele>136.19999694824</ele>
        <time>2025-07-10T18:43:54.000Z</time>
      </trkpt>
      <trkpt lat="43.83193" lon="5.09936">
        <ele>135.39999389648</ele>
        <time>2025-07-10T18:43:56.000Z</time>
      </trkpt>
      <trkpt lat="43.83194" lon="5.09936">
        <ele>135.19999694824</ele>
        <time>2025-07-10T18:43:57.000Z</time>
      </trkpt>
      <trkpt lat="43.83197" lon="5.09938">
        <ele>134.60000610352</ele>
        <time>2025-07-10T18:43:59.000Z</time>
      </trkpt>
      <trkpt lat="43.83198" lon="5.09942">
        <ele>134</ele>
        <time>2025-07-10T18:44:01.000Z</time>
      </trkpt>
      <trkpt lat="43.83198" lon="5.09947">
        <ele>132.80000305176</ele>
        <time>2025-07-10T18:44:04.000Z</time>
      </trkpt>
      <trkpt lat="43.83199" lon="5.09948">
        <ele>132.19999694824</ele>
        <time>2025-07-10T18:44:06.000Z</time>
      </trkpt>
      <trkpt lat="43.832" lon="5.0995">
        <ele>132</ele>
        <time>2025-07-10T18:44:07.000Z</time>
      </trkpt>
      <trkpt lat="43.83201" lon="5.09951">
        <ele>131.39999389648</ele>
        <time>2025-07-10T18:44:08.000Z</time>
      </trkpt>
      <trkpt lat="43.83202" lon="5.09952">
        <ele>130.39999389648</ele>
        <time>2025-07-10T18:44:10.000Z</time>
      </trkpt>
      <trkpt lat="43.83205" lon="5.09955">
        <ele>129.60000610352</ele>
        <time>2025-07-10T18:44:13.000Z</time>
      </trkpt>
      <trkpt lat="43.83205" lon="5.09957">
        <ele>129</ele>
        <time>2025-07-10T18:44:14.000Z</time>
      </trkpt>
      <trkpt lat="43.83208" lon="5.0996">
        <ele>127.80000305176</ele>
        <time>2025-07-10T18:44:17.000Z</time>
      </trkpt>
      <trkpt lat="43.83211" lon="5.09963">
        <ele>126.40000152588</ele>
        <time>2025-07-10T18:44:20.000Z</time>
      </trkpt>
      <trkpt lat="43.83215" lon="5.0997">
        <ele>125.19999694824</ele>
        <time>2025-07-10T18:44:23.000Z</time>
      </trkpt>
      <trkpt lat="43.8322" lon="5.09979">
        <ele>123.59999847412</ele>
        <time>2025-07-10T18:44:26.000Z</time>
      </trkpt>
      <trkpt lat="43.83221" lon="5.09989">
        <ele>122.59999847412</ele>
        <time>2025-07-10T18:44:29.000Z</time>
      </trkpt>
      <trkpt lat="43.83221" lon="5.09999">
        <ele>122</ele>
        <time>2025-07-10T18:44:32.000Z</time>
      </trkpt>
      <trkpt lat="43.83222" lon="5.10018">
        <ele>123.19999694824</ele>
        <time>2025-07-10T18:44:39.000Z</time>
      </trkpt>
      <trkpt lat="43.83226" lon="5.10024">
        <ele>123.80000305176</ele>
        <time>2025-07-10T18:44:42.000Z</time>
      </trkpt>
      <trkpt lat="43.83229" lon="5.10025">
        <ele>124</ele>
        <time>2025-07-10T18:44:44.000Z</time>
      </trkpt>
      <trkpt lat="43.83247" lon="5.10032">
        <ele>124.19999694824</ele>
        <time>2025-07-10T18:44:52.000Z</time>
      </trkpt>
      <trkpt lat="43.83266" lon="5.10039">
        <ele>123.80000305176</ele>
        <time>2025-07-10T18:45:00.000Z</time>
      </trkpt>
      <trkpt lat="43.83268" lon="5.1004">
        <ele>123.80000305176</ele>
        <time>2025-07-10T18:45:01.000Z</time>
      </trkpt>
      <trkpt lat="43.83282" lon="5.10051">
        <ele>123.40000152588</ele>
        <time>2025-07-10T18:45:08.000Z</time>
      </trkpt>
      <trkpt lat="43.83291" lon="5.10049">
        <ele>123.40000152588</ele>
        <time>2025-07-10T18:45:13.000Z</time>
      </trkpt>
      <trkpt lat="43.83303" lon="5.10053">
        <ele>123.80000305176</ele>
        <time>2025-07-10T18:45:19.000Z</time>
      </trkpt>
      <trkpt lat="43.83311" lon="5.10061">
        <ele>124.59999847412</ele>
        <time>2025-07-10T18:45:25.000Z</time>
      </trkpt>
      <trkpt lat="43.83311" lon="5.10063">
        <ele>124.80000305176</ele>
        <time>2025-07-10T18:45:26.000Z</time>
      </trkpt>
      <trkpt lat="43.83312" lon="5.10069">
        <ele>125.59999847412</ele>
        <time>2025-07-10T18:45:30.000Z</time>
      </trkpt>
      <trkpt lat="43.83312" lon="5.10069">
        <ele>126</ele>
        <time>2025-07-10T18:45:31.000Z</time>
      </trkpt>
      <trkpt lat="43.83314" lon="5.10074">
        <ele>126.19999694824</ele>
        <time>2025-07-10T18:45:32.000Z</time>
      </trkpt>
      <trkpt lat="43.83317" lon="5.10086">
        <ele>127.19999694824</ele>
        <time>2025-07-10T18:45:37.000Z</time>
      </trkpt>
      <trkpt lat="43.83319" lon="5.10092">
        <ele>127.40000152588</ele>
        <time>2025-07-10T18:45:40.000Z</time>
      </trkpt>
      <trkpt lat="43.83328" lon="5.10107">
        <ele>127.59999847412</ele>
        <time>2025-07-10T18:45:48.000Z</time>
      </trkpt>
      <trkpt lat="43.8333" lon="5.10123">
        <ele>127.19999694824</ele>
        <time>2025-07-10T18:45:55.000Z</time>
      </trkpt>
      <trkpt lat="43.83332" lon="5.10146">
        <ele>127.59999847412</ele>
        <time>2025-07-10T18:46:03.000Z</time>
      </trkpt>
      <trkpt lat="43.83336" lon="5.10172">
        <ele>127.59999847412</ele>
        <time>2025-07-10T18:46:11.000Z</time>
      </trkpt>
      <trkpt lat="43.83341" lon="5.10195">
        <ele>128.19999694824</ele>
        <time>2025-07-10T18:46:19.000Z</time>
      </trkpt>
      <trkpt lat="43.83346" lon="5.10219">
        <ele>128.39999389648</ele>
        <time>2025-07-10T18:46:27.000Z</time>
      </trkpt>
      <trkpt lat="43.83349" lon="5.10227">
        <ele>128.80000305176</ele>
        <time>2025-07-10T18:46:30.000Z</time>
      </trkpt>
      <trkpt lat="43.83354" lon="5.10252">
        <ele>129</ele>
        <time>2025-07-10T18:46:38.000Z</time>
      </trkpt>
      <trkpt lat="43.83354" lon="5.10252">
        <ele>129</ele>
        <time>2025-07-10T18:46:39.000Z</time>
      </trkpt>
      <trkpt lat="43.83353" lon="5.10264">
        <ele>129.19999694824</ele>
        <time>2025-07-10T18:46:42.000Z</time>
      </trkpt>
      <trkpt lat="43.83352" lon="5.10266">
        <ele>129.19999694824</ele>
        <time>2025-07-10T18:46:43.000Z</time>
      </trkpt>
      <trkpt lat="43.83349" lon="5.1027">
        <ele>129.19999694824</ele>
        <time>2025-07-10T18:46:45.000Z</time>
      </trkpt>
      <trkpt lat="43.83347" lon="5.10273">
        <ele>130.39999389648</ele>
        <time>2025-07-10T18:46:48.000Z</time>
      </trkpt>
      <trkpt lat="43.83345" lon="5.10277">
        <ele>130.60000610352</ele>
        <time>2025-07-10T18:46:50.000Z</time>
      </trkpt>
      <trkpt lat="43.83342" lon="5.1029">
        <ele>131.60000610352</ele>
        <time>2025-07-10T18:46:56.000Z</time>
      </trkpt>
      <trkpt lat="43.83343" lon="5.10294">
        <ele>131.80000305176</ele>
        <time>2025-07-10T18:46:58.000Z</time>
      </trkpt>
      <trkpt lat="43.83345" lon="5.10305">
        <ele>132.39999389648</ele>
        <time>2025-07-10T18:47:03.000Z</time>
      </trkpt>
      <trkpt lat="43.83348" lon="5.10324">
        <ele>132.19999694824</ele>
        <time>2025-07-10T18:47:09.000Z</time>
      </trkpt>
      <trkpt lat="43.8335" lon="5.10345">
        <ele>132</ele>
        <time>2025-07-10T18:47:16.000Z</time>
      </trkpt>
      <trkpt lat="43.83353" lon="5.10361">
        <ele>132.19999694824</ele>
        <time>2025-07-10T18:47:22.000Z</time>
      </trkpt>
      <trkpt lat="43.83354" lon="5.10369">
        <ele>132.80000305176</ele>
        <time>2025-07-10T18:47:25.000Z</time>
      </trkpt>
      <trkpt lat="43.83352" lon="5.10373">
        <ele>133</ele>
        <time>2025-07-10T18:47:27.000Z</time>
      </trkpt>
      <trkpt lat="43.83343" lon="5.10377">
        <ele>133.80000305176</ele>
        <time>2025-07-10T18:47:32.000Z</time>
      </trkpt>
      <trkpt lat="43.83332" lon="5.10387">
        <ele>135</ele>
        <time>2025-07-10T18:47:38.000Z</time>
      </trkpt>
      <trkpt lat="43.83331" lon="5.1039">
        <ele>135.39999389648</ele>
        <time>2025-07-10T18:47:39.000Z</time>
      </trkpt>
      <trkpt lat="43.83329" lon="5.10394">
        <ele>136</ele>
        <time>2025-07-10T18:47:41.000Z</time>
      </trkpt>
      <trkpt lat="43.83326" lon="5.10406">
        <ele>136.60000610352</ele>
        <time>2025-07-10T18:47:47.000Z</time>
      </trkpt>
      <trkpt lat="43.83327" lon="5.1041">
        <ele>137</ele>
        <time>2025-07-10T18:47:49.000Z</time>
      </trkpt>
      <trkpt lat="43.8333" lon="5.10414">
        <ele>137.60000610352</ele>
        <time>2025-07-10T18:47:52.000Z</time>
      </trkpt>
      <trkpt lat="43.83332" lon="5.10414">
        <ele>137.80000305176</ele>
        <time>2025-07-10T18:47:53.000Z</time>
      </trkpt>
      <trkpt lat="43.83348" lon="5.10413">
        <ele>137.80000305176</ele>
        <time>2025-07-10T18:48:00.000Z</time>
      </trkpt>
      <trkpt lat="43.83362" lon="5.1042">
        <ele>138.19999694824</ele>
        <time>2025-07-10T18:48:08.000Z</time>
      </trkpt>
      <trkpt lat="43.83367" lon="5.10429">
        <ele>139.19999694824</ele>
        <time>2025-07-10T18:48:13.000Z</time>
      </trkpt>
      <trkpt lat="43.83367" lon="5.10431">
        <ele>139.60000610352</ele>
        <time>2025-07-10T18:48:14.000Z</time>
      </trkpt>
      <trkpt lat="43.83373" lon="5.10438">
        <ele>140.19999694824</ele>
        <time>2025-07-10T18:48:19.000Z</time>
      </trkpt>
      <trkpt lat="43.83375" lon="5.10439">
        <ele>140.39999389648</ele>
        <time>2025-07-10T18:48:20.000Z</time>
      </trkpt>
      <trkpt lat="43.83379" lon="5.10443">
        <ele>140.80000305176</ele>
        <time>2025-07-10T18:48:23.000Z</time>
      </trkpt>
      <trkpt lat="43.83391" lon="5.10453">
        <ele>141.39999389648</ele>
        <time>2025-07-10T18:48:31.000Z</time>
      </trkpt>
      <trkpt lat="43.83407" lon="5.10467">
        <ele>141.60000610352</ele>
        <time>2025-07-10T18:48:40.000Z</time>
      </trkpt>
      <trkpt lat="43.83422" lon="5.10479">
        <ele>142</ele>
        <time>2025-07-10T18:48:49.000Z</time>
      </trkpt>
      <trkpt lat="43.83436" lon="5.10486">
        <ele>142.39999389648</ele>
        <time>2025-07-10T18:48:56.000Z</time>
      </trkpt>
      <trkpt lat="43.83438" lon="5.10487">
        <ele>142.39999389648</ele>
        <time>2025-07-10T18:48:57.000Z</time>
      </trkpt>
      <trkpt lat="43.83457" lon="5.10495">
        <ele>142.80000305176</ele>
        <time>2025-07-10T18:49:06.000Z</time>
      </trkpt>
      <trkpt lat="43.83469" lon="5.10499">
        <ele>143.60000610352</ele>
        <time>2025-07-10T18:49:11.000Z</time>
      </trkpt>
      <trkpt lat="43.83477" lon="5.105">
        <ele>144</ele>
        <time>2025-07-10T18:49:15.000Z</time>
      </trkpt>
      <trkpt lat="43.83491" lon="5.10509">
        <ele>144.60000610352</ele>
        <time>2025-07-10T18:49:23.000Z</time>
      </trkpt>
      <trkpt lat="43.83503" lon="5.10508">
        <ele>145.60000610352</ele>
        <time>2025-07-10T18:49:30.000Z</time>
      </trkpt>
      <trkpt lat="43.83513" lon="5.10508">
        <ele>146.80000305176</ele>
        <time>2025-07-10T18:49:37.000Z</time>
      </trkpt>
      <trkpt lat="43.83516" lon="5.10506">
        <ele>146.60000610352</ele>
        <time>2025-07-10T18:49:39.000Z</time>
      </trkpt>
      <trkpt lat="43.83527" lon="5.10504">
        <ele>145.80000305176</ele>
        <time>2025-07-10T18:49:45.000Z</time>
      </trkpt>
      <trkpt lat="43.83531" lon="5.10503">
        <ele>145.19999694824</ele>
        <time>2025-07-10T18:49:47.000Z</time>
      </trkpt>
      <trkpt lat="43.83535" lon="5.10502">
        <ele>144.60000610352</ele>
        <time>2025-07-10T18:49:50.000Z</time>
      </trkpt>
      <trkpt lat="43.83537" lon="5.10504">
        <ele>144.39999389648</ele>
        <time>2025-07-10T18:49:51.000Z</time>
      </trkpt>
      <trkpt lat="43.8354" lon="5.10509">
        <ele>143.80000305176</ele>
        <time>2025-07-10T18:49:54.000Z</time>
      </trkpt>
      <trkpt lat="43.83541" lon="5.1051">
        <ele>143.39999389648</ele>
        <time>2025-07-10T18:49:55.000Z</time>
      </trkpt>
      <trkpt lat="43.83545" lon="5.10518">
        <ele>142.19999694824</ele>
        <time>2025-07-10T18:49:59.000Z</time>
      </trkpt>
      <trkpt lat="43.83546" lon="5.1052">
        <ele>141.80000305176</ele>
        <time>2025-07-10T18:50:00.000Z</time>
      </trkpt>
      <trkpt lat="43.83546" lon="5.10525">
        <ele>141</ele>
        <time>2025-07-10T18:50:02.000Z</time>
      </trkpt>
      <trkpt lat="43.83545" lon="5.10533">
        <ele>139.80000305176</ele>
        <time>2025-07-10T18:50:05.000Z</time>
      </trkpt>
      <trkpt lat="43.83551" lon="5.10543">
        <ele>138.39999389648</ele>
        <time>2025-07-10T18:50:07.000Z</time>
      </trkpt>
      <trkpt lat="43.83557" lon="5.10546">
        <ele>137.19999694824</ele>
        <time>2025-07-10T18:50:11.000Z</time>
      </trkpt>
      <trkpt lat="43.83564" lon="5.10545">
        <ele>136</ele>
        <time>2025-07-10T18:50:15.000Z</time>
      </trkpt>
      <trkpt lat="43.83568" lon="5.10542">
        <ele>135.19999694824</ele>
        <time>2025-07-10T18:50:19.000Z</time>
      </trkpt>
      <trkpt lat="43.83571" lon="5.10545">
        <ele>135</ele>
        <time>2025-07-10T18:50:21.000Z</time>
      </trkpt>
      <trkpt lat="43.83573" lon="5.10552">
        <ele>133.39999389648</ele>
        <time>2025-07-10T18:50:23.000Z</time>
      </trkpt>
      <trkpt lat="43.83573" lon="5.10552">
        <ele>132.60000610352</ele>
        <time>2025-07-10T18:50:25.000Z</time>
      </trkpt>
      <trkpt lat="43.8357" lon="5.10562">
        <ele>132.19999694824</ele>
        <time>2025-07-10T18:50:26.000Z</time>
      </trkpt>
      <trkpt lat="43.83566" lon="5.10569">
        <ele>132</ele>
        <time>2025-07-10T18:50:29.000Z</time>
      </trkpt>
      <trkpt lat="43.83556" lon="5.10588">
        <ele>132.39999389648</ele>
        <time>2025-07-10T18:50:37.000Z</time>
      </trkpt>
      <trkpt lat="43.83563" lon="5.10602">
        <ele>131.39999389648</ele>
        <time>2025-07-10T18:50:42.000Z</time>
      </trkpt>
      <trkpt lat="43.83566" lon="5.10609">
        <ele>131</ele>
        <time>2025-07-10T18:50:44.000Z</time>
      </trkpt>
      <trkpt lat="43.83571" lon="5.10619">
        <ele>130.39999389648</ele>
        <time>2025-07-10T18:50:47.000Z</time>
      </trkpt>
      <trkpt lat="43.83576" lon="5.10627">
        <ele>129.80000305176</ele>
        <time>2025-07-10T18:50:50.000Z</time>
      </trkpt>
      <trkpt lat="43.83583" lon="5.10632">
        <ele>129</ele>
        <time>2025-07-10T18:50:53.000Z</time>
      </trkpt>
      <trkpt lat="43.83585" lon="5.10632">
        <ele>129</ele>
        <time>2025-07-10T18:50:54.000Z</time>
      </trkpt>
      <trkpt lat="43.83593" lon="5.10627">
        <ele>128.80000305176</ele>
        <time>2025-07-10T18:50:58.000Z</time>
      </trkpt>
      <trkpt lat="43.83599" lon="5.10623">
        <ele>128.60000610352</ele>
        <time>2025-07-10T18:51:00.000Z</time>
      </trkpt>
      <trkpt lat="43.83614" lon="5.10613">
        <ele>127.80000305176</ele>
        <time>2025-07-10T18:51:06.000Z</time>
      </trkpt>
      <trkpt lat="43.83616" lon="5.10611">
        <ele>127.80000305176</ele>
        <time>2025-07-10T18:51:07.000Z</time>
      </trkpt>
      <trkpt lat="43.83631" lon="5.106">
        <ele>126.80000305176</ele>
        <time>2025-07-10T18:51:13.000Z</time>
      </trkpt>
      <trkpt lat="43.8364" lon="5.10596">
        <ele>126.59999847412</ele>
        <time>2025-07-10T18:51:16.000Z</time>
      </trkpt>
      <trkpt lat="43.83654" lon="5.10585">
        <ele>125.59999847412</ele>
        <time>2025-07-10T18:51:22.000Z</time>
      </trkpt>
      <trkpt lat="43.83659" lon="5.1058">
        <ele>125.59999847412</ele>
        <time>2025-07-10T18:51:24.000Z</time>
      </trkpt>
      <trkpt lat="43.83669" lon="5.10562">
        <ele>124.59999847412</ele>
        <time>2025-07-10T18:51:30.000Z</time>
      </trkpt>
      <trkpt lat="43.83672" lon="5.10556">
        <ele>124.40000152588</ele>
        <time>2025-07-10T18:51:32.000Z</time>
      </trkpt>
      <trkpt lat="43.83675" lon="5.10546">
        <ele>124</ele>
        <time>2025-07-10T18:51:35.000Z</time>
      </trkpt>
      <trkpt lat="43.8368" lon="5.10536">
        <ele>123.59999847412</ele>
        <time>2025-07-10T18:51:38.000Z</time>
      </trkpt>
      <trkpt lat="43.83683" lon="5.1053">
        <ele>123</ele>
        <time>2025-07-10T18:51:40.000Z</time>
      </trkpt>
      <trkpt lat="43.83688" lon="5.10525">
        <ele>122.80000305176</ele>
        <time>2025-07-10T18:51:42.000Z</time>
      </trkpt>
      <trkpt lat="43.83697" lon="5.10518">
        <ele>122.40000152588</ele>
        <time>2025-07-10T18:51:46.000Z</time>
      </trkpt>
      <trkpt lat="43.83699" lon="5.10516">
        <ele>122.40000152588</ele>
        <time>2025-07-10T18:51:47.000Z</time>
      </trkpt>
      <trkpt lat="43.8371" lon="5.10507">
        <ele>121.19999694824</ele>
        <time>2025-07-10T18:51:52.000Z</time>
      </trkpt>
      <trkpt lat="43.83717" lon="5.10503">
        <ele>120.80000305176</ele>
        <time>2025-07-10T18:51:55.000Z</time>
      </trkpt>
      <trkpt lat="43.83732" lon="5.10494">
        <ele>120.19999694824</ele>
        <time>2025-07-10T18:52:01.000Z</time>
      </trkpt>
      <trkpt lat="43.83737" lon="5.10495">
        <ele>120.19999694824</ele>
        <time>2025-07-10T18:52:03.000Z</time>
      </trkpt>
      <trkpt lat="43.83748" lon="5.10503">
        <ele>119.19999694824</ele>
        <time>2025-07-10T18:52:08.000Z</time>
      </trkpt>
      <trkpt lat="43.83752" lon="5.10508">
        <ele>118.40000152588</ele>
        <time>2025-07-10T18:52:10.000Z</time>
      </trkpt>
      <trkpt lat="43.83766" lon="5.10522">
        <ele>118.19999694824</ele>
        <time>2025-07-10T18:52:17.000Z</time>
      </trkpt>
      <trkpt lat="43.8377" lon="5.10526">
        <ele>117.80000305176</ele>
        <time>2025-07-10T18:52:19.000Z</time>
      </trkpt>
      <trkpt lat="43.83782" lon="5.1054">
        <ele>117.19999694824</ele>
        <time>2025-07-10T18:52:26.000Z</time>
      </trkpt>
      <trkpt lat="43.83786" lon="5.1055">
        <ele>116.80000305176</ele>
        <time>2025-07-10T18:52:29.000Z</time>
      </trkpt>
      <trkpt lat="43.83795" lon="5.10568">
        <ele>116.19999694824</ele>
        <time>2025-07-10T18:52:35.000Z</time>
      </trkpt>
      <trkpt lat="43.83802" lon="5.10593">
        <ele>116.40000152588</ele>
        <time>2025-07-10T18:52:43.000Z</time>
      </trkpt>
      <trkpt lat="43.83806" lon="5.10598">
        <ele>115.80000305176</ele>
        <time>2025-07-10T18:52:46.000Z</time>
      </trkpt>
      <trkpt lat="43.83818" lon="5.10608">
        <ele>115.19999694824</ele>
        <time>2025-07-10T18:52:50.000Z</time>
      </trkpt>
      <trkpt lat="43.83827" lon="5.10613">
        <ele>114.59999847412</ele>
        <time>2025-07-10T18:52:54.000Z</time>
      </trkpt>
      <trkpt lat="43.83836" lon="5.1062">
        <ele>114.40000152588</ele>
        <time>2025-07-10T18:52:58.000Z</time>
      </trkpt>
      <trkpt lat="43.83852" lon="5.10631">
        <ele>114.80000305176</ele>
        <time>2025-07-10T18:53:07.000Z</time>
      </trkpt>
      <trkpt lat="43.83853" lon="5.10633">
        <ele>114.80000305176</ele>
        <time>2025-07-10T18:53:08.000Z</time>
      </trkpt>
      <trkpt lat="43.83858" lon="5.10641">
        <ele>114.80000305176</ele>
        <time>2025-07-10T18:53:12.000Z</time>
      </trkpt>
      <trkpt lat="43.83873" lon="5.10658">
        <ele>115.19999694824</ele>
        <time>2025-07-10T18:53:21.000Z</time>
      </trkpt>
      <trkpt lat="43.83884" lon="5.10663">
        <ele>115.80000305176</ele>
        <time>2025-07-10T18:53:27.000Z</time>
      </trkpt>
      <trkpt lat="43.83885" lon="5.10665">
        <ele>116.19999694824</ele>
        <time>2025-07-10T18:53:28.000Z</time>
      </trkpt>
      <trkpt lat="43.8389" lon="5.10671">
        <ele>116.80000305176</ele>
        <time>2025-07-10T18:53:33.000Z</time>
      </trkpt>
      <trkpt lat="43.83891" lon="5.10672">
        <ele>117</ele>
        <time>2025-07-10T18:53:34.000Z</time>
      </trkpt>
      <trkpt lat="43.83895" lon="5.10677">
        <ele>118</ele>
        <time>2025-07-10T18:53:38.000Z</time>
      </trkpt>
      <trkpt lat="43.83899" lon="5.10682">
        <ele>119.19999694824</ele>
        <time>2025-07-10T18:53:43.000Z</time>
      </trkpt>
      <trkpt lat="43.839" lon="5.10683">
        <ele>119.40000152588</ele>
        <time>2025-07-10T18:53:44.000Z</time>
      </trkpt>
      <trkpt lat="43.83903" lon="5.10685">
        <ele>120.59999847412</ele>
        <time>2025-07-10T18:53:48.000Z</time>
      </trkpt>
      <trkpt lat="43.83904" lon="5.10687">
        <ele>121</ele>
        <time>2025-07-10T18:53:50.000Z</time>
      </trkpt>
      <trkpt lat="43.83904" lon="5.10689">
        <ele>121.59999847412</ele>
        <time>2025-07-10T18:53:52.000Z</time>
      </trkpt>
      <trkpt lat="43.83905" lon="5.10694">
        <ele>122.59999847412</ele>
        <time>2025-07-10T18:53:56.000Z</time>
      </trkpt>
      <trkpt lat="43.83907" lon="5.10695">
        <ele>122.80000305176</ele>
        <time>2025-07-10T18:53:58.000Z</time>
      </trkpt>
      <trkpt lat="43.83907" lon="5.10695">
        <ele>123.19999694824</ele>
        <time>2025-07-10T18:53:59.000Z</time>
      </trkpt>
      <trkpt lat="43.83909" lon="5.10699">
        <ele>123.59999847412</ele>
        <time>2025-07-10T18:54:01.000Z</time>
      </trkpt>
      <trkpt lat="43.83915" lon="5.10703">
        <ele>123.80000305176</ele>
        <time>2025-07-10T18:54:06.000Z</time>
      </trkpt>
      <trkpt lat="43.83918" lon="5.10706">
        <ele>124.19999694824</ele>
        <time>2025-07-10T18:54:09.000Z</time>
      </trkpt>
      <trkpt lat="43.8392" lon="5.10706">
        <ele>125</ele>
        <time>2025-07-10T18:54:12.000Z</time>
      </trkpt>
      <trkpt lat="43.83923" lon="5.10711">
        <ele>126</ele>
        <time>2025-07-10T18:54:17.000Z</time>
      </trkpt>
      <trkpt lat="43.83923" lon="5.10712">
        <ele>126.19999694824</ele>
        <time>2025-07-10T18:54:18.000Z</time>
      </trkpt>
      <trkpt lat="43.83925" lon="5.10714">
        <ele>127.19999694824</ele>
        <time>2025-07-10T18:54:22.000Z</time>
      </trkpt>
      <trkpt lat="43.83926" lon="5.10714">
        <ele>127.40000152588</ele>
        <time>2025-07-10T18:54:23.000Z</time>
      </trkpt>
      <trkpt lat="43.83929" lon="5.10714">
        <ele>127.80000305176</ele>
        <time>2025-07-10T18:54:25.000Z</time>
      </trkpt>
      <trkpt lat="43.83933" lon="5.10717">
        <ele>128.19999694824</ele>
        <time>2025-07-10T18:54:28.000Z</time>
      </trkpt>
      <trkpt lat="43.83939" lon="5.10721">
        <ele>128.19999694824</ele>
        <time>2025-07-10T18:54:32.000Z</time>
      </trkpt>
      <trkpt lat="43.83944" lon="5.10733">
        <ele>128.80000305176</ele>
        <time>2025-07-10T18:54:39.000Z</time>
      </trkpt>
      <trkpt lat="43.83944" lon="5.10736">
        <ele>129.39999389648</ele>
        <time>2025-07-10T18:54:42.000Z</time>
      </trkpt>
      <trkpt lat="43.83944" lon="5.10738">
        <ele>130.19999694824</ele>
        <time>2025-07-10T18:54:45.000Z</time>
      </trkpt>
      <trkpt lat="43.83945" lon="5.10739">
        <ele>130.39999389648</ele>
        <time>2025-07-10T18:54:46.000Z</time>
      </trkpt>
      <trkpt lat="43.83947" lon="5.10743">
        <ele>131.19999694824</ele>
        <time>2025-07-10T18:54:49.000Z</time>
      </trkpt>
      <trkpt lat="43.83946" lon="5.10745">
        <ele>131.80000305176</ele>
        <time>2025-07-10T18:54:51.000Z</time>
      </trkpt>
      <trkpt lat="43.83946" lon="5.10745">
        <ele>132</ele>
        <time>2025-07-10T18:54:52.000Z</time>
      </trkpt>
      <trkpt lat="43.83945" lon="5.1075">
        <ele>132.80000305176</ele>
        <time>2025-07-10T18:54:56.000Z</time>
      </trkpt>
      <trkpt lat="43.83944" lon="5.10752">
        <ele>133.80000305176</ele>
        <time>2025-07-10T18:54:59.000Z</time>
      </trkpt>
      <trkpt lat="43.83944" lon="5.10753">
        <ele>134.19999694824</ele>
        <time>2025-07-10T18:55:00.000Z</time>
      </trkpt>
      <trkpt lat="43.83947" lon="5.10754">
        <ele>135.19999694824</ele>
        <time>2025-07-10T18:55:05.000Z</time>
      </trkpt>
      <trkpt lat="43.83948" lon="5.10754">
        <ele>135.39999389648</ele>
        <time>2025-07-10T18:55:06.000Z</time>
      </trkpt>
      <trkpt lat="43.83951" lon="5.1076">
        <ele>136.80000305176</ele>
        <time>2025-07-10T18:55:12.000Z</time>
      </trkpt>
      <trkpt lat="43.8396" lon="5.10764">
        <ele>137.60000610352</ele>
        <time>2025-07-10T18:55:19.000Z</time>
      </trkpt>
      <trkpt lat="43.83962" lon="5.10767">
        <ele>137.80000305176</ele>
        <time>2025-07-10T18:55:22.000Z</time>
      </trkpt>
      <trkpt lat="43.83963" lon="5.10773">
        <ele>138.39999389648</ele>
        <time>2025-07-10T18:55:26.000Z</time>
      </trkpt>
      <trkpt lat="43.83964" lon="5.10774">
        <ele>139</ele>
        <time>2025-07-10T18:55:28.000Z</time>
      </trkpt>
      <trkpt lat="43.83965" lon="5.10774">
        <ele>139</ele>
        <time>2025-07-10T18:55:29.000Z</time>
      </trkpt>
      <trkpt lat="43.83966" lon="5.10774">
        <ele>139.60000610352</ele>
        <time>2025-07-10T18:55:31.000Z</time>
      </trkpt>
      <trkpt lat="43.83967" lon="5.10775">
        <ele>139.60000610352</ele>
        <time>2025-07-10T18:55:32.000Z</time>
      </trkpt>
      <trkpt lat="43.83969" lon="5.10775">
        <ele>139.80000305176</ele>
        <time>2025-07-10T18:55:34.000Z</time>
      </trkpt>
      <trkpt lat="43.83971" lon="5.10777">
        <ele>140</ele>
        <time>2025-07-10T18:55:35.000Z</time>
      </trkpt>
      <trkpt lat="43.83974" lon="5.1078">
        <ele>140.39999389648</ele>
        <time>2025-07-10T18:55:37.000Z</time>
      </trkpt>
      <trkpt lat="43.83983" lon="5.10791">
        <ele>141</ele>
        <time>2025-07-10T18:55:44.000Z</time>
      </trkpt>
      <trkpt lat="43.83985" lon="5.10795">
        <ele>141</ele>
        <time>2025-07-10T18:55:46.000Z</time>
      </trkpt>
      <trkpt lat="43.83997" lon="5.10797">
        <ele>141.39999389648</ele>
        <time>2025-07-10T18:55:53.000Z</time>
      </trkpt>
      <trkpt lat="43.84004" lon="5.10798">
        <ele>142.19999694824</ele>
        <time>2025-07-10T18:55:59.000Z</time>
      </trkpt>
      <trkpt lat="43.84005" lon="5.10801">
        <ele>142.60000610352</ele>
        <time>2025-07-10T18:56:01.000Z</time>
      </trkpt>
      <trkpt lat="43.84008" lon="5.10812">
        <ele>142.80000305176</ele>
        <time>2025-07-10T18:56:08.000Z</time>
      </trkpt>
      <trkpt lat="43.84016" lon="5.10821">
        <ele>143.19999694824</ele>
        <time>2025-07-10T18:56:15.000Z</time>
      </trkpt>
      <trkpt lat="43.84014" lon="5.10831">
        <ele>143.39999389648</ele>
        <time>2025-07-10T18:56:20.000Z</time>
      </trkpt>
      <trkpt lat="43.84014" lon="5.10832">
        <ele>143.39999389648</ele>
        <time>2025-07-10T18:56:21.000Z</time>
      </trkpt>
      <trkpt lat="43.84015" lon="5.10835">
        <ele>143.80000305176</ele>
        <time>2025-07-10T18:56:23.000Z</time>
      </trkpt>
      <trkpt lat="43.84016" lon="5.1084">
        <ele>144.39999389648</ele>
        <time>2025-07-10T18:56:26.000Z</time>
      </trkpt>
      <trkpt lat="43.84016" lon="5.10843">
        <ele>144.80000305176</ele>
        <time>2025-07-10T18:56:27.000Z</time>
      </trkpt>
      <trkpt lat="43.84015" lon="5.10846">
        <ele>145</ele>
        <time>2025-07-10T18:56:28.000Z</time>
      </trkpt>
      <trkpt lat="43.84013" lon="5.1085">
        <ele>145.19999694824</ele>
        <time>2025-07-10T18:56:31.000Z</time>
      </trkpt>
      <trkpt lat="43.84009" lon="5.10855">
        <ele>145.39999389648</ele>
        <time>2025-07-10T18:56:35.000Z</time>
      </trkpt>
      <trkpt lat="43.84004" lon="5.1086">
        <ele>146</ele>
        <time>2025-07-10T18:56:39.000Z</time>
      </trkpt>
      <trkpt lat="43.83997" lon="5.10863">
        <ele>146.19999694824</ele>
        <time>2025-07-10T18:56:42.000Z</time>
      </trkpt>
      <trkpt lat="43.83993" lon="5.1087">
        <ele>147.19999694824</ele>
        <time>2025-07-10T18:56:46.000Z</time>
      </trkpt>
      <trkpt lat="43.8399" lon="5.10873">
        <ele>147.39999389648</ele>
        <time>2025-07-10T18:56:48.000Z</time>
      </trkpt>
      <trkpt lat="43.83975" lon="5.10883">
        <ele>147.39999389648</ele>
        <time>2025-07-10T18:56:56.000Z</time>
      </trkpt>
      <trkpt lat="43.83969" lon="5.10894">
        <ele>148.19999694824</ele>
        <time>2025-07-10T18:57:02.000Z</time>
      </trkpt>
      <trkpt lat="43.8397" lon="5.10895">
        <ele>148.19999694824</ele>
        <time>2025-07-10T18:57:03.000Z</time>
      </trkpt>
      <trkpt lat="43.83975" lon="5.109">
        <ele>149.19999694824</ele>
        <time>2025-07-10T18:57:07.000Z</time>
      </trkpt>
      <trkpt lat="43.83976" lon="5.10901">
        <ele>149.39999389648</ele>
        <time>2025-07-10T18:57:08.000Z</time>
      </trkpt>
      <trkpt lat="43.83979" lon="5.10917">
        <ele>150.19999694824</ele>
        <time>2025-07-10T18:57:14.000Z</time>
      </trkpt>
      <trkpt lat="43.8398" lon="5.1092">
        <ele>150.39999389648</ele>
        <time>2025-07-10T18:57:15.000Z</time>
      </trkpt>
      <trkpt lat="43.83983" lon="5.10928">
        <ele>151.60000610352</ele>
        <time>2025-07-10T18:57:19.000Z</time>
      </trkpt>
      <trkpt lat="43.83987" lon="5.10934">
        <ele>152</ele>
        <time>2025-07-10T18:57:22.000Z</time>
      </trkpt>
      <trkpt lat="43.83994" lon="5.10946">
        <ele>152.60000610352</ele>
        <time>2025-07-10T18:57:29.000Z</time>
      </trkpt>
      <trkpt lat="43.83997" lon="5.10948">
        <ele>153.19999694824</ele>
        <time>2025-07-10T18:57:31.000Z</time>
      </trkpt>
      <trkpt lat="43.84002" lon="5.10954">
        <ele>153.80000305176</ele>
        <time>2025-07-10T18:57:36.000Z</time>
      </trkpt>
      <trkpt lat="43.84004" lon="5.10956">
        <ele>153.80000305176</ele>
        <time>2025-07-10T18:57:38.000Z</time>
      </trkpt>
      <trkpt lat="43.84017" lon="5.10963">
        <ele>154.80000305176</ele>
        <time>2025-07-10T18:57:46.000Z</time>
      </trkpt>
      <trkpt lat="43.84019" lon="5.10965">
        <ele>155</ele>
        <time>2025-07-10T18:57:47.000Z</time>
      </trkpt>
      <trkpt lat="43.8403" lon="5.1098">
        <ele>155.80000305176</ele>
        <time>2025-07-10T18:57:55.000Z</time>
      </trkpt>
      <trkpt lat="43.84031" lon="5.10982">
        <ele>156</ele>
        <time>2025-07-10T18:57:56.000Z</time>
      </trkpt>
      <trkpt lat="43.8404" lon="5.10994">
        <ele>156</ele>
        <time>2025-07-10T18:58:02.000Z</time>
      </trkpt>
      <trkpt lat="43.84041" lon="5.11012">
        <ele>156.39999389648</ele>
        <time>2025-07-10T18:58:08.000Z</time>
      </trkpt>
      <trkpt lat="43.84047" lon="5.11029">
        <ele>154.60000610352</ele>
        <time>2025-07-10T18:58:16.000Z</time>
      </trkpt>
      <trkpt lat="43.84052" lon="5.11038">
        <ele>153.39999389648</ele>
        <time>2025-07-10T18:58:19.000Z</time>
      </trkpt>
      <trkpt lat="43.84052" lon="5.11038">
        <ele>153.19999694824</ele>
        <time>2025-07-10T18:58:20.000Z</time>
      </trkpt>
      <trkpt lat="43.84069" lon="5.11048">
        <ele>153</ele>
        <time>2025-07-10T18:58:27.000Z</time>
      </trkpt>
      <trkpt lat="43.84078" lon="5.11054">
        <ele>152.39999389648</ele>
        <time>2025-07-10T18:58:31.000Z</time>
      </trkpt>
      <trkpt lat="43.84088" lon="5.11059">
        <ele>152.39999389648</ele>
        <time>2025-07-10T18:58:35.000Z</time>
      </trkpt>
      <trkpt lat="43.84099" lon="5.11066">
        <ele>153.19999694824</ele>
        <time>2025-07-10T18:58:40.000Z</time>
      </trkpt>
      <trkpt lat="43.84111" lon="5.11072">
        <ele>153.60000610352</ele>
        <time>2025-07-10T18:58:45.000Z</time>
      </trkpt>
      <trkpt lat="43.84116" lon="5.11074">
        <ele>153.80000305176</ele>
        <time>2025-07-10T18:58:47.000Z</time>
      </trkpt>
      <trkpt lat="43.84133" lon="5.11083">
        <ele>153.80000305176</ele>
        <time>2025-07-10T18:58:54.000Z</time>
      </trkpt>
      <trkpt lat="43.84135" lon="5.11084">
        <ele>153.80000305176</ele>
        <time>2025-07-10T18:58:55.000Z</time>
      </trkpt>
      <trkpt lat="43.84148" lon="5.1109">
        <ele>154.60000610352</ele>
        <time>2025-07-10T18:59:01.000Z</time>
      </trkpt>
      <trkpt lat="43.8415" lon="5.1109">
        <ele>155</ele>
        <time>2025-07-10T18:59:02.000Z</time>
      </trkpt>
      <trkpt lat="43.84156" lon="5.11095">
        <ele>155.80000305176</ele>
        <time>2025-07-10T18:59:05.000Z</time>
      </trkpt>
      <trkpt lat="43.84162" lon="5.11097">
        <ele>156.60000610352</ele>
        <time>2025-07-10T18:59:09.000Z</time>
      </trkpt>
      <trkpt lat="43.84166" lon="5.11098">
        <ele>156.80000305176</ele>
        <time>2025-07-10T18:59:11.000Z</time>
      </trkpt>
      <trkpt lat="43.84177" lon="5.11106">
        <ele>156.60000610352</ele>
        <time>2025-07-10T18:59:17.000Z</time>
      </trkpt>
      <trkpt lat="43.8419" lon="5.1112">
        <ele>156.60000610352</ele>
        <time>2025-07-10T18:59:25.000Z</time>
      </trkpt>
      <trkpt lat="43.84199" lon="5.11131">
        <ele>155.60000610352</ele>
        <time>2025-07-10T18:59:31.000Z</time>
      </trkpt>
      <trkpt lat="43.84206" lon="5.1114">
        <ele>155</ele>
        <time>2025-07-10T18:59:34.000Z</time>
      </trkpt>
      <trkpt lat="43.84213" lon="5.11145">
        <ele>154.60000610352</ele>
        <time>2025-07-10T18:59:39.000Z</time>
      </trkpt>
      <trkpt lat="43.84223" lon="5.11152">
        <ele>153.60000610352</ele>
        <time>2025-07-10T18:59:43.000Z</time>
      </trkpt>
      <trkpt lat="43.84225" lon="5.11153">
        <ele>153.19999694824</ele>
        <time>2025-07-10T18:59:44.000Z</time>
      </trkpt>
      <trkpt lat="43.84229" lon="5.11157">
        <ele>152.19999694824</ele>
        <time>2025-07-10T18:59:46.000Z</time>
      </trkpt>
      <trkpt lat="43.84232" lon="5.11163">
        <ele>151</ele>
        <time>2025-07-10T18:59:48.000Z</time>
      </trkpt>
      <trkpt lat="43.84233" lon="5.11166">
        <ele>150.60000610352</ele>
        <time>2025-07-10T18:59:49.000Z</time>
      </trkpt>
      <trkpt lat="43.84234" lon="5.11173">
        <ele>149.60000610352</ele>
        <time>2025-07-10T18:59:51.000Z</time>
      </trkpt>
      <trkpt lat="43.84237" lon="5.11187">
        <ele>148.60000610352</ele>
        <time>2025-07-10T18:59:55.000Z</time>
      </trkpt>
      <trkpt lat="43.84237" lon="5.1119">
        <ele>148.39999389648</ele>
        <time>2025-07-10T18:59:56.000Z</time>
      </trkpt>
      <trkpt lat="43.8424" lon="5.11195">
        <ele>146.80000305176</ele>
        <time>2025-07-10T18:59:58.000Z</time>
      </trkpt>
      <trkpt lat="43.84244" lon="5.11201">
        <ele>145.60000610352</ele>
        <time>2025-07-10T19:00:00.000Z</time>
      </trkpt>
      <trkpt lat="43.84246" lon="5.11204">
        <ele>145.39999389648</ele>
        <time>2025-07-10T19:00:01.000Z</time>
      </trkpt>
      <trkpt lat="43.84251" lon="5.11213">
        <ele>144.39999389648</ele>
        <time>2025-07-10T19:00:04.000Z</time>
      </trkpt>
      <trkpt lat="43.84259" lon="5.11223">
        <ele>143.19999694824</ele>
        <time>2025-07-10T19:00:08.000Z</time>
      </trkpt>
      <trkpt lat="43.84261" lon="5.11226">
        <ele>142.60000610352</ele>
        <time>2025-07-10T19:00:09.000Z</time>
      </trkpt>
      <trkpt lat="43.84264" lon="5.11228">
        <ele>141.80000305176</ele>
        <time>2025-07-10T19:00:10.000Z</time>
      </trkpt>
      <trkpt lat="43.84273" lon="5.11238">
        <ele>140.60000610352</ele>
        <time>2025-07-10T19:00:14.000Z</time>
      </trkpt>
      <trkpt lat="43.84282" lon="5.11241">
        <ele>139.39999389648</ele>
        <time>2025-07-10T19:00:17.000Z</time>
      </trkpt>
      <trkpt lat="43.84295" lon="5.11246">
        <ele>138.19999694824</ele>
        <time>2025-07-10T19:00:22.000Z</time>
      </trkpt>
      <trkpt lat="43.84307" lon="5.11247">
        <ele>137.19999694824</ele>
        <time>2025-07-10T19:00:26.000Z</time>
      </trkpt>
      <trkpt lat="43.84313" lon="5.11249">
        <ele>136.80000305176</ele>
        <time>2025-07-10T19:00:28.000Z</time>
      </trkpt>
      <trkpt lat="43.84321" lon="5.1125">
        <ele>136.19999694824</ele>
        <time>2025-07-10T19:00:31.000Z</time>
      </trkpt>
      <trkpt lat="43.84332" lon="5.11253">
        <ele>134.80000305176</ele>
        <time>2025-07-10T19:00:35.000Z</time>
      </trkpt>
      <trkpt lat="43.84339" lon="5.11256">
        <ele>134.19999694824</ele>
        <time>2025-07-10T19:00:38.000Z</time>
      </trkpt>
      <trkpt lat="43.84344" lon="5.11258">
        <ele>133.60000610352</ele>
        <time>2025-07-10T19:00:41.000Z</time>
      </trkpt>
      <trkpt lat="43.84355" lon="5.11261">
        <ele>133.19999694824</ele>
        <time>2025-07-10T19:00:44.000Z</time>
      </trkpt>
      <trkpt lat="43.84371" lon="5.11271">
        <ele>132.60000610352</ele>
        <time>2025-07-10T19:00:51.000Z</time>
      </trkpt>
      <trkpt lat="43.84373" lon="5.11274">
        <ele>132.39999389648</ele>
        <time>2025-07-10T19:00:52.000Z</time>
      </trkpt>
      <trkpt lat="43.84374" lon="5.11277">
        <ele>132.39999389648</ele>
        <time>2025-07-10T19:00:53.000Z</time>
      </trkpt>
      <trkpt lat="43.84375" lon="5.11283">
        <ele>132.39999389648</ele>
        <time>2025-07-10T19:00:55.000Z</time>
      </trkpt>
    </trkseg>
  </trk>
</gpx>